<?xml version="1.0" encoding="UTF-8" standalone="no" ?>
<gpx xmlns="http://www.topografix.com/GPX/1/1" xmlns:xsi="http://www.w3.org/2001/XMLSchema-instance" xsi:schemaLocation="http://www.topografix.com/GPX/1/1 http://www.topografix.com/GPX/1/1/gpx.xsd" version="1.1" creator="VisuGPX - https://www.visugpx.com">
  <metadata>
    <name>Haut Jura</name>
    <desc><![CDATA[
Randonnées ]]></desc>
  </metadata>
  <wpt lat="46.53494" lon="5.92031">
    <ele>877.0546875</ele>
    <name><![CDATA[Abbaye En Grandvaux]]></name>
    <desc><![CDATA[Abbaye En Grandvaux]]></desc>
    <cmt><![CDATA[Abbaye En Grandvaux]]></cmt>
    <type><![CDATA[user]]></type>
  </wpt>
  <wpt lat="46.51158" lon="5.83825">
    <ele>913.7890625</ele>
    <name><![CDATA[Cap France Le Duchet]]></name>
    <type><![CDATA[user]]></type>
  </wpt>
  <wpt lat="46.61466" lon="5.86872">
    <ele>710.71875</ele>
    <name><![CDATA[Cascade du hérisson]]></name>
    <type><![CDATA[user]]></type>
  </wpt>
  <wpt lat="46.5758" lon="5.75141">
    <ele>542.484375</ele>
    <name><![CDATA[Clairvaux-Les-Lacs]]></name>
    <type><![CDATA[user]]></type>
  </wpt>
  <wpt lat="46.61757" lon="5.88041">
    <ele>769.328125</ele>
    <name><![CDATA[La Fromagerie]]></name>
    <type><![CDATA[user]]></type>
  </wpt>
  <wpt lat="46.61364" lon="5.85054">
    <ele>534.63671875</ele>
    <name><![CDATA[Maison Des Cascades Du Hérisson]]></name>
    <desc><![CDATA[Maison Des Cascades Du Hérisson]]></desc>
    <cmt><![CDATA[Maison Des Cascades Du Hérisson]]></cmt>
    <type><![CDATA[user]]></type>
  </wpt>
  <wpt lat="46.6097" lon="5.9042">
    <ele>943</ele>
    <name><![CDATA[Parking du Pic de l'Aigle]]></name>
    <type><![CDATA[user]]></type>
  </wpt>
  <wpt lat="46.61803" lon="5.8822">
    <ele>770.25390625</ele>
    <name><![CDATA[Parking La Fromagerie]]></name>
    <desc><![CDATA[L'Éolienne]]></desc>
    <cmt><![CDATA[L'Éolienne]]></cmt>
    <type><![CDATA[user]]></type>
  </wpt>
  <wpt lat="46.61466" lon="5.90166">
    <ele>955.24609375</ele>
    <name><![CDATA[Pic de l'Aigle]]></name>
    <type><![CDATA[user]]></type>
  </wpt>
  <wpt lat="46.51203" lon="5.84005">
    <ele>906.57421875</ele>
    <name><![CDATA[Prénovel]]></name>
    <type><![CDATA[user]]></type>
  </wpt>
  <wpt lat="46.57526" lon="5.95631">
    <ele>911.5625</ele>
    <name><![CDATA[Saint-Laurent-En-Grandvaux]]></name>
    <type><![CDATA[user]]></type>
  </wpt>
  <trk>
    <name><![CDATA[J3a - Pic de l'Aigle et belvedere des 4 lacs _C]]></name>
    <trkseg>
      <trkpt lat="46.61385" lon="5.90296">
        <ele>945.11</ele>
        <time>2019-11-12T09:00:52Z</time>
      </trkpt>
      <trkpt lat="46.61399" lon="5.90286">
        <ele>948.2</ele>
        <time>2019-11-12T09:01:10Z</time>
      </trkpt>
      <trkpt lat="46.61402" lon="5.90283">
        <ele>949.6</ele>
        <time>2019-11-12T09:01:16Z</time>
      </trkpt>
      <trkpt lat="46.61403" lon="5.90282">
        <ele>949.18</ele>
        <time>2019-11-12T09:01:18Z</time>
      </trkpt>
      <trkpt lat="46.61412" lon="5.9028">
        <ele>952.02</ele>
        <time>2019-11-12T09:01:42Z</time>
      </trkpt>
      <trkpt lat="46.61417" lon="5.90281">
        <ele>954.77</ele>
        <time>2019-11-12T09:02:00Z</time>
      </trkpt>
      <trkpt lat="46.61425" lon="5.90279">
        <ele>957.02</ele>
        <time>2019-11-12T09:02:16Z</time>
      </trkpt>
      <trkpt lat="46.61429" lon="5.9028">
        <ele>960.06</ele>
        <time>2019-11-12T09:02:31Z</time>
      </trkpt>
      <trkpt lat="46.61431" lon="5.9028">
        <ele>960.83</ele>
        <time>2019-11-12T09:02:38Z</time>
      </trkpt>
      <trkpt lat="46.61437" lon="5.90273">
        <ele>964.36</ele>
        <time>2019-11-12T09:03:04Z</time>
      </trkpt>
      <trkpt lat="46.61434" lon="5.90261">
        <ele>967.4</ele>
        <time>2019-11-12T09:03:22Z</time>
      </trkpt>
      <trkpt lat="46.61434" lon="5.90252">
        <ele>967.41</ele>
        <time>2019-11-12T09:03:44Z</time>
      </trkpt>
      <trkpt lat="46.61436" lon="5.90247">
        <ele>970.47</ele>
        <time>2019-11-12T09:04:06Z</time>
      </trkpt>
      <trkpt lat="46.61446" lon="5.90237">
        <ele>973.7</ele>
        <time>2019-11-12T09:04:29Z</time>
      </trkpt>
      <trkpt lat="46.61453" lon="5.90232">
        <ele>976.8</ele>
        <time>2019-11-12T09:04:46Z</time>
      </trkpt>
      <trkpt lat="46.61458" lon="5.90228">
        <ele>979.44</ele>
        <time>2019-11-12T09:05:07Z</time>
      </trkpt>
      <trkpt lat="46.61463" lon="5.90225">
        <ele>982.52</ele>
        <time>2019-11-12T09:05:20Z</time>
      </trkpt>
      <trkpt lat="46.61464" lon="5.90224">
        <ele>984.3</ele>
        <time>2019-11-12T09:05:39Z</time>
      </trkpt>
      <trkpt lat="46.61469" lon="5.90216">
        <ele>986.21</ele>
        <time>2019-11-12T09:05:58Z</time>
      </trkpt>
      <trkpt lat="46.61467" lon="5.9022">
        <ele>987.81</ele>
        <time>2019-11-12T09:06:12Z</time>
      </trkpt>
      <trkpt lat="46.61469" lon="5.90229">
        <ele>990.7</ele>
        <time>2019-11-12T09:06:35Z</time>
      </trkpt>
      <trkpt lat="46.61472" lon="5.90232">
        <ele>992.94</ele>
        <time>2019-11-12T09:06:57Z</time>
      </trkpt>
      <trkpt lat="46.61472" lon="5.90235">
        <ele>993.47</ele>
        <time>2019-11-12T09:07:27Z</time>
      </trkpt>
      <trkpt lat="46.61473" lon="5.90236">
        <ele>992.94</ele>
        <time>2019-11-12T09:07:51Z</time>
      </trkpt>
      <trkpt lat="46.61473" lon="5.90235">
        <ele>992.09</ele>
        <time>2019-11-12T09:08:12Z</time>
      </trkpt>
      <trkpt lat="46.61472" lon="5.90234">
        <ele>992.65</ele>
        <time>2019-11-12T09:08:35Z</time>
      </trkpt>
      <trkpt lat="46.61472" lon="5.90233">
        <ele>992.5</ele>
        <time>2019-11-12T09:09:01Z</time>
      </trkpt>
      <trkpt lat="46.61472" lon="5.90235">
        <ele>991.77</ele>
        <time>2019-11-12T09:09:24Z</time>
      </trkpt>
      <trkpt lat="46.61474" lon="5.90236">
        <ele>992.28</ele>
        <time>2019-11-12T09:09:48Z</time>
      </trkpt>
      <trkpt lat="46.61473" lon="5.90236">
        <ele>991.54</ele>
        <time>2019-11-12T09:10:16Z</time>
      </trkpt>
      <trkpt lat="46.61473" lon="5.90237">
        <ele>991.28</ele>
        <time>2019-11-12T09:10:54Z</time>
      </trkpt>
      <trkpt lat="46.61474" lon="5.90238">
        <ele>990.72</ele>
        <time>2019-11-12T09:11:19Z</time>
      </trkpt>
      <trkpt lat="46.61477" lon="5.90235">
        <ele>990.46</ele>
        <time>2019-11-12T09:11:40Z</time>
      </trkpt>
      <trkpt lat="46.61476" lon="5.90239">
        <ele>990.5</ele>
        <time>2019-11-12T09:12:08Z</time>
      </trkpt>
      <trkpt lat="46.61477" lon="5.90241">
        <ele>990.27</ele>
        <time>2019-11-12T09:12:35Z</time>
      </trkpt>
      <trkpt lat="46.61476" lon="5.90237">
        <ele>990.31</ele>
        <time>2019-11-12T09:12:54Z</time>
      </trkpt>
      <trkpt lat="46.61477" lon="5.90235">
        <ele>990.12</ele>
        <time>2019-11-12T09:13:14Z</time>
      </trkpt>
      <trkpt lat="46.61477" lon="5.90233">
        <ele>989.89</ele>
        <time>2019-11-12T09:13:31Z</time>
      </trkpt>
      <trkpt lat="46.61476" lon="5.90234">
        <ele>990.32</ele>
        <time>2019-11-12T09:13:49Z</time>
      </trkpt>
      <trkpt lat="46.61475" lon="5.90234">
        <ele>989.77</ele>
        <time>2019-11-12T09:14:11Z</time>
      </trkpt>
      <trkpt lat="46.61475" lon="5.90235">
        <ele>989.52</ele>
        <time>2019-11-12T09:14:39Z</time>
      </trkpt>
      <trkpt lat="46.61475" lon="5.90236">
        <ele>989.38</ele>
        <time>2019-11-12T09:15:10Z</time>
      </trkpt>
      <trkpt lat="46.61475" lon="5.90236">
        <ele>989.26</ele>
        <time>2019-11-12T09:15:49Z</time>
      </trkpt>
      <trkpt lat="46.61474" lon="5.90236">
        <ele>989.7</ele>
        <time>2019-11-12T09:16:17Z</time>
      </trkpt>
      <trkpt lat="46.61474" lon="5.90238">
        <ele>988.76</ele>
        <time>2019-11-12T09:16:49Z</time>
      </trkpt>
      <trkpt lat="46.61474" lon="5.90235">
        <ele>988.66</ele>
        <time>2019-11-12T09:17:16Z</time>
      </trkpt>
      <trkpt lat="46.61474" lon="5.90235">
        <ele>989.63</ele>
        <time>2019-11-12T09:17:34Z</time>
      </trkpt>
      <trkpt lat="46.61475" lon="5.90233">
        <ele>988.96</ele>
        <time>2019-11-12T09:18:00Z</time>
      </trkpt>
      <trkpt lat="46.61475" lon="5.90235">
        <ele>988.52</ele>
        <time>2019-11-12T09:18:19Z</time>
      </trkpt>
      <trkpt lat="46.61475" lon="5.90236">
        <ele>989.91</ele>
        <time>2019-11-12T09:18:49Z</time>
      </trkpt>
      <trkpt lat="46.61473" lon="5.90235">
        <ele>989.07</ele>
        <time>2019-11-12T09:19:07Z</time>
      </trkpt>
      <trkpt lat="46.61474" lon="5.90235">
        <ele>989.13</ele>
        <time>2019-11-12T09:19:30Z</time>
      </trkpt>
      <trkpt lat="46.61475" lon="5.90237">
        <ele>988.88</ele>
        <time>2019-11-12T09:19:46Z</time>
      </trkpt>
      <trkpt lat="46.61475" lon="5.9024">
        <ele>989.62</ele>
        <time>2019-11-12T09:19:50Z</time>
      </trkpt>
      <trkpt lat="46.61484" lon="5.90249">
        <ele>989.81</ele>
        <time>2019-11-12T09:20:08Z</time>
      </trkpt>
      <trkpt lat="46.61489" lon="5.9025">
        <ele>991.37</ele>
        <time>2019-11-12T09:20:12Z</time>
      </trkpt>
      <trkpt lat="46.61491" lon="5.9025">
        <ele>991.41</ele>
        <time>2019-11-12T09:20:14Z</time>
      </trkpt>
      <trkpt lat="46.61502" lon="5.90254">
        <ele>990.66</ele>
        <time>2019-11-12T09:20:31Z</time>
      </trkpt>
      <trkpt lat="46.61505" lon="5.90267">
        <ele>988.97</ele>
        <time>2019-11-12T09:20:47Z</time>
      </trkpt>
      <trkpt lat="46.61506" lon="5.90268">
        <ele>987.63</ele>
        <time>2019-11-12T09:20:50Z</time>
      </trkpt>
      <trkpt lat="46.6152" lon="5.90276">
        <ele>988</ele>
        <time>2019-11-12T09:21:08Z</time>
      </trkpt>
      <trkpt lat="46.61522" lon="5.90277">
        <ele>988.58</ele>
        <time>2019-11-12T09:21:11Z</time>
      </trkpt>
      <trkpt lat="46.61529" lon="5.90284">
        <ele>991.27</ele>
        <time>2019-11-12T09:21:24Z</time>
      </trkpt>
      <trkpt lat="46.61532" lon="5.90295">
        <ele>991.64</ele>
        <time>2019-11-12T09:21:44Z</time>
      </trkpt>
      <trkpt lat="46.61536" lon="5.90299">
        <ele>992</ele>
        <time>2019-11-12T09:22:03Z</time>
      </trkpt>
      <trkpt lat="46.61546" lon="5.90312">
        <ele>990.03</ele>
        <time>2019-11-12T09:22:23Z</time>
      </trkpt>
      <trkpt lat="46.61555" lon="5.90324">
        <ele>986.83</ele>
        <time>2019-11-12T09:22:38Z</time>
      </trkpt>
      <trkpt lat="46.61561" lon="5.90329">
        <ele>984.95</ele>
        <time>2019-11-12T09:22:59Z</time>
      </trkpt>
      <trkpt lat="46.61569" lon="5.90339">
        <ele>981.71</ele>
        <time>2019-11-12T09:23:19Z</time>
      </trkpt>
      <trkpt lat="46.61578" lon="5.90351">
        <ele>982.27</ele>
        <time>2019-11-12T09:23:36Z</time>
      </trkpt>
      <trkpt lat="46.61589" lon="5.90367">
        <ele>982.06</ele>
        <time>2019-11-12T09:23:54Z</time>
      </trkpt>
      <trkpt lat="46.616" lon="5.90385">
        <ele>980.56</ele>
        <time>2019-11-12T09:24:15Z</time>
      </trkpt>
      <trkpt lat="46.61606" lon="5.9039">
        <ele>979.36</ele>
        <time>2019-11-12T09:24:25Z</time>
      </trkpt>
      <trkpt lat="46.61613" lon="5.90399">
        <ele>976.95</ele>
        <time>2019-11-12T09:24:48Z</time>
      </trkpt>
      <trkpt lat="46.61622" lon="5.90406">
        <ele>975.54</ele>
        <time>2019-11-12T09:25:02Z</time>
      </trkpt>
      <trkpt lat="46.61633" lon="5.90419">
        <ele>973.78</ele>
        <time>2019-11-12T09:25:23Z</time>
      </trkpt>
      <trkpt lat="46.61648" lon="5.90435">
        <ele>974.12</ele>
        <time>2019-11-12T09:25:45Z</time>
      </trkpt>
      <trkpt lat="46.61671" lon="5.90448">
        <ele>974.35</ele>
        <time>2019-11-12T09:26:03Z</time>
      </trkpt>
      <trkpt lat="46.61681" lon="5.90447">
        <ele>972.9</ele>
        <time>2019-11-12T09:26:16Z</time>
      </trkpt>
      <trkpt lat="46.61689" lon="5.90438">
        <ele>970.59</ele>
        <time>2019-11-12T09:26:34Z</time>
      </trkpt>
      <trkpt lat="46.617" lon="5.90431">
        <ele>967.84</ele>
        <time>2019-11-12T09:26:53Z</time>
      </trkpt>
      <trkpt lat="46.61708" lon="5.90425">
        <ele>966.57</ele>
        <time>2019-11-12T09:27:10Z</time>
      </trkpt>
      <trkpt lat="46.6171" lon="5.9042">
        <ele>965.25</ele>
        <time>2019-11-12T09:27:17Z</time>
      </trkpt>
      <trkpt lat="46.61724" lon="5.90406">
        <ele>962.33</ele>
        <time>2019-11-12T09:27:38Z</time>
      </trkpt>
      <trkpt lat="46.61738" lon="5.90401">
        <ele>963.18</ele>
        <time>2019-11-12T09:27:54Z</time>
      </trkpt>
      <trkpt lat="46.61751" lon="5.90405">
        <ele>965.37</ele>
        <time>2019-11-12T09:28:12Z</time>
      </trkpt>
      <trkpt lat="46.61767" lon="5.90411">
        <ele>966.17</ele>
        <time>2019-11-12T09:28:28Z</time>
      </trkpt>
      <trkpt lat="46.61789" lon="5.90418">
        <ele>967.52</ele>
        <time>2019-11-12T09:28:49Z</time>
      </trkpt>
      <trkpt lat="46.61805" lon="5.90427">
        <ele>967.26</ele>
        <time>2019-11-12T09:29:09Z</time>
      </trkpt>
      <trkpt lat="46.61821" lon="5.90438">
        <ele>967.23</ele>
        <time>2019-11-12T09:29:29Z</time>
      </trkpt>
      <trkpt lat="46.61836" lon="5.90457">
        <ele>964.88</ele>
        <time>2019-11-12T09:29:48Z</time>
      </trkpt>
      <trkpt lat="46.61845" lon="5.90469">
        <ele>961.77</ele>
        <time>2019-11-12T09:30:03Z</time>
      </trkpt>
      <trkpt lat="46.61851" lon="5.90481">
        <ele>958.66</ele>
        <time>2019-11-12T09:30:17Z</time>
      </trkpt>
      <trkpt lat="46.61852" lon="5.90486">
        <ele>957.65</ele>
        <time>2019-11-12T09:30:23Z</time>
      </trkpt>
      <trkpt lat="46.61857" lon="5.90495">
        <ele>954.67</ele>
        <time>2019-11-12T09:30:36Z</time>
      </trkpt>
      <trkpt lat="46.61859" lon="5.905">
        <ele>953.86</ele>
        <time>2019-11-12T09:30:41Z</time>
      </trkpt>
      <trkpt lat="46.61861" lon="5.90511">
        <ele>953.03</ele>
        <time>2019-11-12T09:30:48Z</time>
      </trkpt>
      <trkpt lat="46.61875" lon="5.90527">
        <ele>951.17</ele>
        <time>2019-11-12T09:31:04Z</time>
      </trkpt>
      <trkpt lat="46.61888" lon="5.90537">
        <ele>950.65</ele>
        <time>2019-11-12T09:31:21Z</time>
      </trkpt>
      <trkpt lat="46.61899" lon="5.90555">
        <ele>950.74</ele>
        <time>2019-11-12T09:31:39Z</time>
      </trkpt>
      <trkpt lat="46.61907" lon="5.90566">
        <ele>950.93</ele>
        <time>2019-11-12T09:31:54Z</time>
      </trkpt>
      <trkpt lat="46.61917" lon="5.90583">
        <ele>951.86</ele>
        <time>2019-11-12T09:32:14Z</time>
      </trkpt>
      <trkpt lat="46.61934" lon="5.90596">
        <ele>952.81</ele>
        <time>2019-11-12T09:32:33Z</time>
      </trkpt>
      <trkpt lat="46.61945" lon="5.90608">
        <ele>952.28</ele>
        <time>2019-11-12T09:32:51Z</time>
      </trkpt>
      <trkpt lat="46.61958" lon="5.90622">
        <ele>949.77</ele>
        <time>2019-11-12T09:33:09Z</time>
      </trkpt>
      <trkpt lat="46.61965" lon="5.90639">
        <ele>946.48</ele>
        <time>2019-11-12T09:33:25Z</time>
      </trkpt>
      <trkpt lat="46.61965" lon="5.90639">
        <ele>946.27</ele>
        <time>2019-11-12T09:33:26Z</time>
      </trkpt>
      <trkpt lat="46.61971" lon="5.90645">
        <ele>944.5</ele>
        <time>2019-11-12T09:33:35Z</time>
      </trkpt>
      <trkpt lat="46.61976" lon="5.90647">
        <ele>945.32</ele>
        <time>2019-11-12T09:33:40Z</time>
      </trkpt>
      <trkpt lat="46.61992" lon="5.90659">
        <ele>943.42</ele>
        <time>2019-11-12T09:34:02Z</time>
      </trkpt>
      <trkpt lat="46.62006" lon="5.90676">
        <ele>944.92</ele>
        <time>2019-11-12T09:34:22Z</time>
      </trkpt>
      <trkpt lat="46.62021" lon="5.90682">
        <ele>946.99</ele>
        <time>2019-11-12T09:34:41Z</time>
      </trkpt>
      <trkpt lat="46.6204" lon="5.90697">
        <ele>946.48</ele>
        <time>2019-11-12T09:34:59Z</time>
      </trkpt>
      <trkpt lat="46.62044" lon="5.90724">
        <ele>945.81</ele>
        <time>2019-11-12T09:35:19Z</time>
      </trkpt>
      <trkpt lat="46.62052" lon="5.90741">
        <ele>944.05</ele>
        <time>2019-11-12T09:35:33Z</time>
      </trkpt>
      <trkpt lat="46.62061" lon="5.90757">
        <ele>944.3</ele>
        <time>2019-11-12T09:35:48Z</time>
      </trkpt>
      <trkpt lat="46.62054" lon="5.90781">
        <ele>941.49</ele>
        <time>2019-11-12T09:36:07Z</time>
      </trkpt>
      <trkpt lat="46.62052" lon="5.90787">
        <ele>940.22</ele>
        <time>2019-11-12T09:36:12Z</time>
      </trkpt>
      <trkpt lat="46.62052" lon="5.90788">
        <ele>939.73</ele>
        <time>2019-11-12T09:36:16Z</time>
      </trkpt>
      <trkpt lat="46.62047" lon="5.90804">
        <ele>937.95</ele>
        <time>2019-11-12T09:36:39Z</time>
      </trkpt>
      <trkpt lat="46.62048" lon="5.90809">
        <ele>935.3</ele>
        <time>2019-11-12T09:36:51Z</time>
      </trkpt>
      <trkpt lat="46.62048" lon="5.90819">
        <ele>933.1</ele>
        <time>2019-11-12T09:37:11Z</time>
      </trkpt>
      <trkpt lat="46.62042" lon="5.9084">
        <ele>933.52</ele>
        <time>2019-11-12T09:37:30Z</time>
      </trkpt>
      <trkpt lat="46.62031" lon="5.90862">
        <ele>932.84</ele>
        <time>2019-11-12T09:37:50Z</time>
      </trkpt>
      <trkpt lat="46.62013" lon="5.90876">
        <ele>931.05</ele>
        <time>2019-11-12T09:38:11Z</time>
      </trkpt>
      <trkpt lat="46.62005" lon="5.90894">
        <ele>929.9</ele>
        <time>2019-11-12T09:38:25Z</time>
      </trkpt>
      <trkpt lat="46.62004" lon="5.90898">
        <ele>929.01</ele>
        <time>2019-11-12T09:38:27Z</time>
      </trkpt>
      <trkpt lat="46.62001" lon="5.909">
        <ele>928.66</ele>
        <time>2019-11-12T09:38:34Z</time>
      </trkpt>
      <trkpt lat="46.6199" lon="5.90912">
        <ele>925.63</ele>
        <time>2019-11-12T09:38:54Z</time>
      </trkpt>
      <trkpt lat="46.61982" lon="5.90919">
        <ele>923.08</ele>
        <time>2019-11-12T09:39:15Z</time>
      </trkpt>
      <trkpt lat="46.61985" lon="5.90937">
        <ele>920.45</ele>
        <time>2019-11-12T09:39:38Z</time>
      </trkpt>
      <trkpt lat="46.61995" lon="5.9095">
        <ele>918.12</ele>
        <time>2019-11-12T09:39:57Z</time>
      </trkpt>
      <trkpt lat="46.62006" lon="5.90966">
        <ele>914.87</ele>
        <time>2019-11-12T09:40:13Z</time>
      </trkpt>
      <trkpt lat="46.62022" lon="5.90961">
        <ele>917.53</ele>
        <time>2019-11-12T09:40:30Z</time>
      </trkpt>
      <trkpt lat="46.62029" lon="5.90961">
        <ele>918.58</ele>
        <time>2019-11-12T09:40:41Z</time>
      </trkpt>
      <trkpt lat="46.62031" lon="5.90962">
        <ele>918.31</ele>
        <time>2019-11-12T09:40:43Z</time>
      </trkpt>
      <trkpt lat="46.62041" lon="5.90963">
        <ele>916.73</ele>
        <time>2019-11-12T09:41:02Z</time>
      </trkpt>
      <trkpt lat="46.6206" lon="5.90951">
        <ele>916.07</ele>
        <time>2019-11-12T09:41:22Z</time>
      </trkpt>
      <trkpt lat="46.62062" lon="5.90952">
        <ele>915.93</ele>
        <time>2019-11-12T09:41:24Z</time>
      </trkpt>
      <trkpt lat="46.62073" lon="5.90952">
        <ele>914.33</ele>
        <time>2019-11-12T09:41:45Z</time>
      </trkpt>
      <trkpt lat="46.6209" lon="5.90937">
        <ele>912.64</ele>
        <time>2019-11-12T09:42:09Z</time>
      </trkpt>
      <trkpt lat="46.62109" lon="5.90927">
        <ele>909.96</ele>
        <time>2019-11-12T09:42:29Z</time>
      </trkpt>
      <trkpt lat="46.62112" lon="5.90923">
        <ele>909.51</ele>
        <time>2019-11-12T09:42:34Z</time>
      </trkpt>
      <trkpt lat="46.6212" lon="5.90921">
        <ele>908.99</ele>
        <time>2019-11-12T09:42:48Z</time>
      </trkpt>
      <trkpt lat="46.62124" lon="5.90919">
        <ele>907.92</ele>
        <time>2019-11-12T09:43:01Z</time>
      </trkpt>
      <trkpt lat="46.62136" lon="5.90901">
        <ele>904.7</ele>
        <time>2019-11-12T09:43:23Z</time>
      </trkpt>
      <trkpt lat="46.62138" lon="5.90898">
        <ele>904.35</ele>
        <time>2019-11-12T09:43:26Z</time>
      </trkpt>
      <trkpt lat="46.62153" lon="5.90892">
        <ele>902.72</ele>
        <time>2019-11-12T09:43:44Z</time>
      </trkpt>
      <trkpt lat="46.62158" lon="5.90884">
        <ele>902.65</ele>
        <time>2019-11-12T09:44:14Z</time>
      </trkpt>
      <trkpt lat="46.62157" lon="5.90891">
        <ele>902.49</ele>
        <time>2019-11-12T09:44:43Z</time>
      </trkpt>
      <trkpt lat="46.62156" lon="5.90889">
        <ele>902.06</ele>
        <time>2019-11-12T09:45:07Z</time>
      </trkpt>
      <trkpt lat="46.62154" lon="5.90888">
        <ele>902.22</ele>
        <time>2019-11-12T09:45:35Z</time>
      </trkpt>
      <trkpt lat="46.62157" lon="5.90886">
        <ele>900.34</ele>
        <time>2019-11-12T09:46:00Z</time>
      </trkpt>
      <trkpt lat="46.62175" lon="5.90888">
        <ele>902.64</ele>
        <time>2019-11-12T09:46:21Z</time>
      </trkpt>
      <trkpt lat="46.62196" lon="5.90885">
        <ele>903.54</ele>
        <time>2019-11-12T09:46:42Z</time>
      </trkpt>
      <trkpt lat="46.62212" lon="5.90892">
        <ele>903.36</ele>
        <time>2019-11-12T09:46:56Z</time>
      </trkpt>
      <trkpt lat="46.62223" lon="5.90907">
        <ele>902.36</ele>
        <time>2019-11-12T09:47:18Z</time>
      </trkpt>
      <trkpt lat="46.62233" lon="5.9093">
        <ele>905.06</ele>
        <time>2019-11-12T09:47:39Z</time>
      </trkpt>
      <trkpt lat="46.62233" lon="5.90932">
        <ele>905.1</ele>
        <time>2019-11-12T09:47:42Z</time>
      </trkpt>
      <trkpt lat="46.62237" lon="5.90944">
        <ele>907.71</ele>
        <time>2019-11-12T09:47:55Z</time>
      </trkpt>
      <trkpt lat="46.62246" lon="5.90944">
        <ele>908.15</ele>
        <time>2019-11-12T09:48:20Z</time>
      </trkpt>
      <trkpt lat="46.62252" lon="5.90955">
        <ele>908.85</ele>
        <time>2019-11-12T09:48:52Z</time>
      </trkpt>
      <trkpt lat="46.62266" lon="5.90958">
        <ele>910.67</ele>
        <time>2019-11-12T09:49:12Z</time>
      </trkpt>
      <trkpt lat="46.62279" lon="5.9097">
        <ele>909.4</ele>
        <time>2019-11-12T09:49:32Z</time>
      </trkpt>
      <trkpt lat="46.62298" lon="5.90979">
        <ele>908.22</ele>
        <time>2019-11-12T09:49:53Z</time>
      </trkpt>
      <trkpt lat="46.62312" lon="5.9099">
        <ele>909.55</ele>
        <time>2019-11-12T09:50:16Z</time>
      </trkpt>
      <trkpt lat="46.62319" lon="5.90992">
        <ele>912.74</ele>
        <time>2019-11-12T09:50:28Z</time>
      </trkpt>
      <trkpt lat="46.62336" lon="5.90987">
        <ele>913.95</ele>
        <time>2019-11-12T09:50:47Z</time>
      </trkpt>
      <trkpt lat="46.62339" lon="5.90985">
        <ele>913.9</ele>
        <time>2019-11-12T09:50:51Z</time>
      </trkpt>
      <trkpt lat="46.6235" lon="5.90983">
        <ele>911.47</ele>
        <time>2019-11-12T09:51:11Z</time>
      </trkpt>
      <trkpt lat="46.62354" lon="5.90983">
        <ele>911.27</ele>
        <time>2019-11-12T09:51:32Z</time>
      </trkpt>
      <trkpt lat="46.62355" lon="5.90978">
        <ele>912.58</ele>
        <time>2019-11-12T09:51:47Z</time>
      </trkpt>
      <trkpt lat="46.62356" lon="5.90978">
        <ele>912.77</ele>
        <time>2019-11-12T09:52:13Z</time>
      </trkpt>
      <trkpt lat="46.62356" lon="5.90976">
        <ele>911.76</ele>
        <time>2019-11-12T09:52:39Z</time>
      </trkpt>
      <trkpt lat="46.62358" lon="5.90976">
        <ele>912</ele>
        <time>2019-11-12T09:53:08Z</time>
      </trkpt>
      <trkpt lat="46.62356" lon="5.90977">
        <ele>912.45</ele>
        <time>2019-11-12T09:53:38Z</time>
      </trkpt>
      <trkpt lat="46.62357" lon="5.90977">
        <ele>912.73</ele>
        <time>2019-11-12T09:54:05Z</time>
      </trkpt>
      <trkpt lat="46.62356" lon="5.90976">
        <ele>912.86</ele>
        <time>2019-11-12T09:54:33Z</time>
      </trkpt>
      <trkpt lat="46.62357" lon="5.90975">
        <ele>913.54</ele>
        <time>2019-11-12T09:55:02Z</time>
      </trkpt>
      <trkpt lat="46.62366" lon="5.90987">
        <ele>912.36</ele>
        <time>2019-11-12T09:55:23Z</time>
      </trkpt>
      <trkpt lat="46.62373" lon="5.91">
        <ele>912.41</ele>
        <time>2019-11-12T09:55:40Z</time>
      </trkpt>
      <trkpt lat="46.62379" lon="5.91013">
        <ele>910.88</ele>
        <time>2019-11-12T09:55:57Z</time>
      </trkpt>
      <trkpt lat="46.62387" lon="5.91024">
        <ele>909.69</ele>
        <time>2019-11-12T09:56:17Z</time>
      </trkpt>
      <trkpt lat="46.62402" lon="5.91046">
        <ele>910.73</ele>
        <time>2019-11-12T09:56:40Z</time>
      </trkpt>
      <trkpt lat="46.62414" lon="5.91061">
        <ele>912.67</ele>
        <time>2019-11-12T09:57:01Z</time>
      </trkpt>
      <trkpt lat="46.62428" lon="5.91076">
        <ele>913.29</ele>
        <time>2019-11-12T09:57:19Z</time>
      </trkpt>
      <trkpt lat="46.62442" lon="5.91087">
        <ele>913.18</ele>
        <time>2019-11-12T09:57:36Z</time>
      </trkpt>
      <trkpt lat="46.62447" lon="5.91087">
        <ele>911.9</ele>
        <time>2019-11-12T09:57:50Z</time>
      </trkpt>
      <trkpt lat="46.62452" lon="5.91084">
        <ele>912.11</ele>
        <time>2019-11-12T09:58:07Z</time>
      </trkpt>
      <trkpt lat="46.62454" lon="5.91083">
        <ele>911.12</ele>
        <time>2019-11-12T09:58:29Z</time>
      </trkpt>
      <trkpt lat="46.6246" lon="5.91094">
        <ele>909.69</ele>
        <time>2019-11-12T09:58:51Z</time>
      </trkpt>
      <trkpt lat="46.62468" lon="5.9111">
        <ele>907.68</ele>
        <time>2019-11-12T09:59:09Z</time>
      </trkpt>
      <trkpt lat="46.62471" lon="5.91116">
        <ele>906.99</ele>
        <time>2019-11-12T09:59:17Z</time>
      </trkpt>
      <trkpt lat="46.62484" lon="5.91136">
        <ele>906.18</ele>
        <time>2019-11-12T09:59:39Z</time>
      </trkpt>
      <trkpt lat="46.62493" lon="5.9114">
        <ele>904.61</ele>
        <time>2019-11-12T09:59:55Z</time>
      </trkpt>
      <trkpt lat="46.62498" lon="5.91149">
        <ele>902.77</ele>
        <time>2019-11-12T10:00:18Z</time>
      </trkpt>
      <trkpt lat="46.625" lon="5.91151">
        <ele>903.03</ele>
        <time>2019-11-12T10:00:33Z</time>
      </trkpt>
      <trkpt lat="46.62516" lon="5.91177">
        <ele>904.48</ele>
        <time>2019-11-12T10:01:11Z</time>
      </trkpt>
      <trkpt lat="46.62518" lon="5.91178">
        <ele>904</ele>
        <time>2019-11-12T10:01:27Z</time>
      </trkpt>
      <trkpt lat="46.62526" lon="5.91184">
        <ele>905.77</ele>
        <time>2019-11-12T10:01:43Z</time>
      </trkpt>
      <trkpt lat="46.6253" lon="5.91186">
        <ele>906.01</ele>
        <time>2019-11-12T10:02:00Z</time>
      </trkpt>
      <trkpt lat="46.62531" lon="5.91183">
        <ele>905.42</ele>
        <time>2019-11-12T10:02:29Z</time>
      </trkpt>
      <trkpt lat="46.62534" lon="5.91194">
        <ele>905.55</ele>
        <time>2019-11-12T10:02:53Z</time>
      </trkpt>
      <trkpt lat="46.62538" lon="5.91205">
        <ele>902.43</ele>
        <time>2019-11-12T10:03:06Z</time>
      </trkpt>
      <trkpt lat="46.62539" lon="5.91212">
        <ele>900.23</ele>
        <time>2019-11-12T10:03:15Z</time>
      </trkpt>
      <trkpt lat="46.62541" lon="5.91216">
        <ele>899.21</ele>
        <time>2019-11-12T10:03:18Z</time>
      </trkpt>
      <trkpt lat="46.62542" lon="5.91221">
        <ele>899.04</ele>
        <time>2019-11-12T10:03:20Z</time>
      </trkpt>
      <trkpt lat="46.62548" lon="5.91234">
        <ele>896.96</ele>
        <time>2019-11-12T10:03:36Z</time>
      </trkpt>
      <trkpt lat="46.62554" lon="5.91247">
        <ele>893.78</ele>
        <time>2019-11-12T10:03:50Z</time>
      </trkpt>
      <trkpt lat="46.62561" lon="5.91256">
        <ele>892.29</ele>
        <time>2019-11-12T10:04:01Z</time>
      </trkpt>
      <trkpt lat="46.6257" lon="5.91265">
        <ele>890.61</ele>
        <time>2019-11-12T10:04:24Z</time>
      </trkpt>
      <trkpt lat="46.62576" lon="5.91275">
        <ele>894.11</ele>
        <time>2019-11-12T10:04:44Z</time>
      </trkpt>
      <trkpt lat="46.62579" lon="5.91276">
        <ele>890.08</ele>
        <time>2019-11-12T10:04:47Z</time>
      </trkpt>
      <trkpt lat="46.62579" lon="5.91276">
        <ele>890.79</ele>
        <time>2019-11-12T10:04:48Z</time>
      </trkpt>
      <trkpt lat="46.62593" lon="5.91292">
        <ele>891.54</ele>
        <time>2019-11-12T10:05:06Z</time>
      </trkpt>
      <trkpt lat="46.62602" lon="5.91298">
        <ele>894.9</ele>
        <time>2019-11-12T10:05:22Z</time>
      </trkpt>
      <trkpt lat="46.62606" lon="5.913">
        <ele>896.03</ele>
        <time>2019-11-12T10:05:27Z</time>
      </trkpt>
      <trkpt lat="46.62613" lon="5.91306">
        <ele>899.55</ele>
        <time>2019-11-12T10:05:40Z</time>
      </trkpt>
      <trkpt lat="46.62621" lon="5.91314">
        <ele>899.58</ele>
        <time>2019-11-12T10:06:01Z</time>
      </trkpt>
      <trkpt lat="46.62621" lon="5.91313">
        <ele>900.54</ele>
        <time>2019-11-12T10:06:20Z</time>
      </trkpt>
      <trkpt lat="46.62623" lon="5.91311">
        <ele>900.16</ele>
        <time>2019-11-12T10:06:43Z</time>
      </trkpt>
      <trkpt lat="46.62624" lon="5.91311">
        <ele>900.41</ele>
        <time>2019-11-12T10:07:04Z</time>
      </trkpt>
      <trkpt lat="46.62624" lon="5.9131">
        <ele>900.59</ele>
        <time>2019-11-12T10:07:32Z</time>
      </trkpt>
      <trkpt lat="46.62622" lon="5.91312">
        <ele>902.73</ele>
        <time>2019-11-12T10:08:01Z</time>
      </trkpt>
      <trkpt lat="46.62618" lon="5.91316">
        <ele>905.77</ele>
        <time>2019-11-12T10:08:19Z</time>
      </trkpt>
      <trkpt lat="46.62616" lon="5.91328">
        <ele>908.9</ele>
        <time>2019-11-12T10:08:35Z</time>
      </trkpt>
      <trkpt lat="46.62616" lon="5.91338">
        <ele>910.36</ele>
        <time>2019-11-12T10:08:48Z</time>
      </trkpt>
      <trkpt lat="46.62616" lon="5.91345">
        <ele>910.29</ele>
        <time>2019-11-12T10:09:18Z</time>
      </trkpt>
      <trkpt lat="46.62615" lon="5.91345">
        <ele>910.18</ele>
        <time>2019-11-12T10:09:42Z</time>
      </trkpt>
      <trkpt lat="46.62614" lon="5.91345">
        <ele>910.3</ele>
        <time>2019-11-12T10:10:05Z</time>
      </trkpt>
      <trkpt lat="46.62612" lon="5.91342">
        <ele>911</ele>
        <time>2019-11-12T10:10:41Z</time>
      </trkpt>
      <trkpt lat="46.62612" lon="5.91343">
        <ele>910.78</ele>
        <time>2019-11-12T10:11:03Z</time>
      </trkpt>
      <trkpt lat="46.62613" lon="5.91344">
        <ele>911.31</ele>
        <time>2019-11-12T10:11:33Z</time>
      </trkpt>
      <trkpt lat="46.62613" lon="5.91345">
        <ele>911.52</ele>
        <time>2019-11-12T10:12:03Z</time>
      </trkpt>
      <trkpt lat="46.62614" lon="5.91344">
        <ele>911.52</ele>
        <time>2019-11-12T10:12:32Z</time>
      </trkpt>
      <trkpt lat="46.62614" lon="5.91344">
        <ele>912.34</ele>
        <time>2019-11-12T10:13:13Z</time>
      </trkpt>
      <trkpt lat="46.62614" lon="5.91344">
        <ele>912.47</ele>
        <time>2019-11-12T10:13:43Z</time>
      </trkpt>
      <trkpt lat="46.62613" lon="5.91346">
        <ele>913.82</ele>
        <time>2019-11-12T10:14:17Z</time>
      </trkpt>
      <trkpt lat="46.62613" lon="5.91345">
        <ele>913.7</ele>
        <time>2019-11-12T10:14:41Z</time>
      </trkpt>
      <trkpt lat="46.62612" lon="5.91348">
        <ele>913.73</ele>
        <time>2019-11-12T10:15:05Z</time>
      </trkpt>
      <trkpt lat="46.62614" lon="5.91346">
        <ele>914.28</ele>
        <time>2019-11-12T10:15:32Z</time>
      </trkpt>
      <trkpt lat="46.62617" lon="5.91353">
        <ele>913.28</ele>
        <time>2019-11-12T10:16:03Z</time>
      </trkpt>
      <trkpt lat="46.62619" lon="5.9136">
        <ele>911.98</ele>
        <time>2019-11-12T10:16:16Z</time>
      </trkpt>
      <trkpt lat="46.62622" lon="5.91385">
        <ele>911.2</ele>
        <time>2019-11-12T10:16:38Z</time>
      </trkpt>
      <trkpt lat="46.62614" lon="5.91411">
        <ele>913.65</ele>
        <time>2019-11-12T10:16:58Z</time>
      </trkpt>
      <trkpt lat="46.62603" lon="5.91432">
        <ele>916.4</ele>
        <time>2019-11-12T10:17:19Z</time>
      </trkpt>
      <trkpt lat="46.62613" lon="5.9144">
        <ele>919.98</ele>
        <time>2019-11-12T10:17:37Z</time>
      </trkpt>
      <trkpt lat="46.62619" lon="5.91449">
        <ele>921.76</ele>
        <time>2019-11-12T10:17:56Z</time>
      </trkpt>
      <trkpt lat="46.62626" lon="5.91458">
        <ele>923.15</ele>
        <time>2019-11-12T10:18:16Z</time>
      </trkpt>
      <trkpt lat="46.6264" lon="5.91469">
        <ele>926.18</ele>
        <time>2019-11-12T10:18:36Z</time>
      </trkpt>
      <trkpt lat="46.62648" lon="5.91473">
        <ele>928.29</ele>
        <time>2019-11-12T10:18:55Z</time>
      </trkpt>
      <trkpt lat="46.62656" lon="5.91481">
        <ele>931.33</ele>
        <time>2019-11-12T10:19:08Z</time>
      </trkpt>
      <trkpt lat="46.62663" lon="5.91494">
        <ele>931.74</ele>
        <time>2019-11-12T10:19:27Z</time>
      </trkpt>
      <trkpt lat="46.62665" lon="5.91491">
        <ele>931.55</ele>
        <time>2019-11-12T10:19:41Z</time>
      </trkpt>
      <trkpt lat="46.62674" lon="5.91489">
        <ele>931.38</ele>
        <time>2019-11-12T10:20:03Z</time>
      </trkpt>
      <trkpt lat="46.62679" lon="5.91496">
        <ele>928.67</ele>
        <time>2019-11-12T10:20:22Z</time>
      </trkpt>
      <trkpt lat="46.62682" lon="5.91497">
        <ele>928.9</ele>
        <time>2019-11-12T10:20:40Z</time>
      </trkpt>
      <trkpt lat="46.62688" lon="5.91506">
        <ele>929.61</ele>
        <time>2019-11-12T10:20:59Z</time>
      </trkpt>
      <trkpt lat="46.62691" lon="5.91515">
        <ele>929.12</ele>
        <time>2019-11-12T10:21:18Z</time>
      </trkpt>
      <trkpt lat="46.62694" lon="5.9151">
        <ele>926.04</ele>
        <time>2019-11-12T10:21:30Z</time>
      </trkpt>
      <trkpt lat="46.62698" lon="5.9151">
        <ele>923.36</ele>
        <time>2019-11-12T10:21:39Z</time>
      </trkpt>
      <trkpt lat="46.62705" lon="5.91509">
        <ele>920.13</ele>
        <time>2019-11-12T10:21:55Z</time>
      </trkpt>
      <trkpt lat="46.62718" lon="5.91509">
        <ele>917.23</ele>
        <time>2019-11-12T10:22:15Z</time>
      </trkpt>
      <trkpt lat="46.62732" lon="5.91504">
        <ele>915.3</ele>
        <time>2019-11-12T10:22:33Z</time>
      </trkpt>
      <trkpt lat="46.62739" lon="5.91506">
        <ele>912.19</ele>
        <time>2019-11-12T10:22:48Z</time>
      </trkpt>
      <trkpt lat="46.62746" lon="5.91512">
        <ele>909.77</ele>
        <time>2019-11-12T10:23:06Z</time>
      </trkpt>
      <trkpt lat="46.62749" lon="5.91513">
        <ele>907.81</ele>
        <time>2019-11-12T10:23:28Z</time>
      </trkpt>
      <trkpt lat="46.62753" lon="5.91518">
        <ele>904.46</ele>
        <time>2019-11-12T10:23:42Z</time>
      </trkpt>
      <trkpt lat="46.62763" lon="5.91525">
        <ele>904.4</ele>
        <time>2019-11-12T10:23:59Z</time>
      </trkpt>
      <trkpt lat="46.62771" lon="5.91541">
        <ele>905.4</ele>
        <time>2019-11-12T10:24:18Z</time>
      </trkpt>
      <trkpt lat="46.62782" lon="5.91559">
        <ele>904.49</ele>
        <time>2019-11-12T10:24:38Z</time>
      </trkpt>
      <trkpt lat="46.62788" lon="5.91571">
        <ele>904.58</ele>
        <time>2019-11-12T10:24:52Z</time>
      </trkpt>
      <trkpt lat="46.62789" lon="5.91573">
        <ele>904.65</ele>
        <time>2019-11-12T10:24:59Z</time>
      </trkpt>
      <trkpt lat="46.62795" lon="5.91594">
        <ele>904.14</ele>
        <time>2019-11-12T10:25:22Z</time>
      </trkpt>
      <trkpt lat="46.62799" lon="5.91602">
        <ele>902.88</ele>
        <time>2019-11-12T10:25:39Z</time>
      </trkpt>
      <trkpt lat="46.62803" lon="5.91604">
        <ele>904.06</ele>
        <time>2019-11-12T10:26:08Z</time>
      </trkpt>
      <trkpt lat="46.62806" lon="5.91614">
        <ele>907.11</ele>
        <time>2019-11-12T10:26:26Z</time>
      </trkpt>
      <trkpt lat="46.62815" lon="5.91634">
        <ele>906.36</ele>
        <time>2019-11-12T10:26:42Z</time>
      </trkpt>
      <trkpt lat="46.62821" lon="5.91648">
        <ele>906.34</ele>
        <time>2019-11-12T10:27:06Z</time>
      </trkpt>
      <trkpt lat="46.62826" lon="5.91657">
        <ele>906.45</ele>
        <time>2019-11-12T10:27:18Z</time>
      </trkpt>
      <trkpt lat="46.62837" lon="5.9167">
        <ele>905.62</ele>
        <time>2019-11-12T10:27:37Z</time>
      </trkpt>
      <trkpt lat="46.62842" lon="5.91673">
        <ele>901.99</ele>
        <time>2019-11-12T10:27:49Z</time>
      </trkpt>
      <trkpt lat="46.62849" lon="5.91674">
        <ele>898.88</ele>
        <time>2019-11-12T10:28:04Z</time>
      </trkpt>
      <trkpt lat="46.62869" lon="5.91692">
        <ele>899.37</ele>
        <time>2019-11-12T10:28:28Z</time>
      </trkpt>
      <trkpt lat="46.62882" lon="5.91712">
        <ele>898.29</ele>
        <time>2019-11-12T10:28:50Z</time>
      </trkpt>
      <trkpt lat="46.62893" lon="5.91731">
        <ele>896.14</ele>
        <time>2019-11-12T10:29:11Z</time>
      </trkpt>
      <trkpt lat="46.62905" lon="5.91748">
        <ele>895.26</ele>
        <time>2019-11-12T10:29:30Z</time>
      </trkpt>
      <trkpt lat="46.62911" lon="5.91771">
        <ele>893.42</ele>
        <time>2019-11-12T10:29:51Z</time>
      </trkpt>
      <trkpt lat="46.62918" lon="5.91795">
        <ele>894.77</ele>
        <time>2019-11-12T10:30:11Z</time>
      </trkpt>
      <trkpt lat="46.62917" lon="5.91801">
        <ele>895.05</ele>
        <time>2019-11-12T10:30:29Z</time>
      </trkpt>
      <trkpt lat="46.62918" lon="5.91802">
        <ele>893.68</ele>
        <time>2019-11-12T10:30:52Z</time>
      </trkpt>
      <trkpt lat="46.6292" lon="5.91801">
        <ele>892.9</ele>
        <time>2019-11-12T10:31:14Z</time>
      </trkpt>
      <trkpt lat="46.62921" lon="5.91799">
        <ele>891.56</ele>
        <time>2019-11-12T10:31:41Z</time>
      </trkpt>
      <trkpt lat="46.62925" lon="5.91798">
        <ele>890.89</ele>
        <time>2019-11-12T10:32:08Z</time>
      </trkpt>
      <trkpt lat="46.62924" lon="5.91795">
        <ele>890.34</ele>
        <time>2019-11-12T10:32:28Z</time>
      </trkpt>
      <trkpt lat="46.62931" lon="5.91798">
        <ele>888.8</ele>
        <time>2019-11-12T10:32:55Z</time>
      </trkpt>
      <trkpt lat="46.62938" lon="5.91802">
        <ele>887.38</ele>
        <time>2019-11-12T10:33:22Z</time>
      </trkpt>
      <trkpt lat="46.62939" lon="5.91809">
        <ele>887.01</ele>
        <time>2019-11-12T10:33:40Z</time>
      </trkpt>
      <trkpt lat="46.62947" lon="5.91821">
        <ele>885.12</ele>
        <time>2019-11-12T10:34:02Z</time>
      </trkpt>
      <trkpt lat="46.62965" lon="5.91844">
        <ele>882.83</ele>
        <time>2019-11-12T10:34:21Z</time>
      </trkpt>
      <trkpt lat="46.62968" lon="5.91854">
        <ele>883.07</ele>
        <time>2019-11-12T10:34:38Z</time>
      </trkpt>
      <trkpt lat="46.62971" lon="5.91861">
        <ele>881.03</ele>
        <time>2019-11-12T10:34:49Z</time>
      </trkpt>
      <trkpt lat="46.62971" lon="5.91867">
        <ele>879.63</ele>
        <time>2019-11-12T10:34:55Z</time>
      </trkpt>
      <trkpt lat="46.62972" lon="5.91871">
        <ele>878.13</ele>
        <time>2019-11-12T10:35:01Z</time>
      </trkpt>
      <trkpt lat="46.62974" lon="5.91875">
        <ele>876.01</ele>
        <time>2019-11-12T10:35:18Z</time>
      </trkpt>
      <trkpt lat="46.6298" lon="5.91891">
        <ele>871.78</ele>
        <time>2019-11-12T10:35:40Z</time>
      </trkpt>
      <trkpt lat="46.62988" lon="5.91905">
        <ele>871.54</ele>
        <time>2019-11-12T10:35:58Z</time>
      </trkpt>
      <trkpt lat="46.62998" lon="5.9191">
        <ele>871.32</ele>
        <time>2019-11-12T10:36:14Z</time>
      </trkpt>
      <trkpt lat="46.62997" lon="5.91911">
        <ele>871.07</ele>
        <time>2019-11-12T10:36:22Z</time>
      </trkpt>
      <trkpt lat="46.63005" lon="5.9192">
        <ele>871.69</ele>
        <time>2019-11-12T10:36:48Z</time>
      </trkpt>
      <trkpt lat="46.63022" lon="5.91933">
        <ele>872.39</ele>
        <time>2019-11-12T10:37:07Z</time>
      </trkpt>
      <trkpt lat="46.6303" lon="5.91942">
        <ele>872.21</ele>
        <time>2019-11-12T10:37:19Z</time>
      </trkpt>
      <trkpt lat="46.63034" lon="5.91948">
        <ele>869.41</ele>
        <time>2019-11-12T10:37:40Z</time>
      </trkpt>
      <trkpt lat="46.63039" lon="5.91947">
        <ele>868.22</ele>
        <time>2019-11-12T10:37:47Z</time>
      </trkpt>
      <trkpt lat="46.63046" lon="5.91952">
        <ele>867.23</ele>
        <time>2019-11-12T10:38:05Z</time>
      </trkpt>
      <trkpt lat="46.63056" lon="5.91961">
        <ele>866.16</ele>
        <time>2019-11-12T10:38:29Z</time>
      </trkpt>
      <trkpt lat="46.63063" lon="5.91964">
        <ele>865.33</ele>
        <time>2019-11-12T10:38:53Z</time>
      </trkpt>
      <trkpt lat="46.6307" lon="5.9197">
        <ele>866.15</ele>
        <time>2019-11-12T10:39:12Z</time>
      </trkpt>
      <trkpt lat="46.6308" lon="5.91978">
        <ele>867.41</ele>
        <time>2019-11-12T10:39:30Z</time>
      </trkpt>
      <trkpt lat="46.63093" lon="5.91989">
        <ele>866.59</ele>
        <time>2019-11-12T10:39:52Z</time>
      </trkpt>
      <trkpt lat="46.63101" lon="5.91997">
        <ele>864.47</ele>
        <time>2019-11-12T10:40:15Z</time>
      </trkpt>
      <trkpt lat="46.63109" lon="5.92008">
        <ele>862.96</ele>
        <time>2019-11-12T10:40:34Z</time>
      </trkpt>
      <trkpt lat="46.63121" lon="5.9202">
        <ele>861</ele>
        <time>2019-11-12T10:40:54Z</time>
      </trkpt>
      <trkpt lat="46.63124" lon="5.92022">
        <ele>861.49</ele>
        <time>2019-11-12T10:41:03Z</time>
      </trkpt>
      <trkpt lat="46.63125" lon="5.92026">
        <ele>862</ele>
        <time>2019-11-12T10:41:07Z</time>
      </trkpt>
      <trkpt lat="46.6313" lon="5.92052">
        <ele>860.73</ele>
        <time>2019-11-12T10:41:29Z</time>
      </trkpt>
      <trkpt lat="46.63133" lon="5.92061">
        <ele>861.8</ele>
        <time>2019-11-12T10:41:41Z</time>
      </trkpt>
      <trkpt lat="46.63141" lon="5.92071">
        <ele>861.92</ele>
        <time>2019-11-12T10:42:02Z</time>
      </trkpt>
      <trkpt lat="46.63148" lon="5.92076">
        <ele>863.33</ele>
        <time>2019-11-12T10:42:23Z</time>
      </trkpt>
      <trkpt lat="46.63148" lon="5.92072">
        <ele>863.35</ele>
        <time>2019-11-12T10:42:48Z</time>
      </trkpt>
      <trkpt lat="46.63149" lon="5.92069">
        <ele>863.63</ele>
        <time>2019-11-12T10:43:12Z</time>
      </trkpt>
      <trkpt lat="46.63159" lon="5.92076">
        <ele>865.46</ele>
        <time>2019-11-12T10:43:30Z</time>
      </trkpt>
      <trkpt lat="46.63169" lon="5.92088">
        <ele>866.17</ele>
        <time>2019-11-12T10:43:48Z</time>
      </trkpt>
      <trkpt lat="46.63177" lon="5.92102">
        <ele>865.92</ele>
        <time>2019-11-12T10:44:06Z</time>
      </trkpt>
      <trkpt lat="46.63185" lon="5.92123">
        <ele>864.52</ele>
        <time>2019-11-12T10:44:27Z</time>
      </trkpt>
      <trkpt lat="46.63185" lon="5.92124">
        <ele>864.23</ele>
        <time>2019-11-12T10:44:28Z</time>
      </trkpt>
      <trkpt lat="46.63187" lon="5.92136">
        <ele>862.72</ele>
        <time>2019-11-12T10:44:45Z</time>
      </trkpt>
      <trkpt lat="46.63197" lon="5.92154">
        <ele>860.76</ele>
        <time>2019-11-12T10:45:00Z</time>
      </trkpt>
      <trkpt lat="46.63201" lon="5.92163">
        <ele>859.26</ele>
        <time>2019-11-12T10:45:19Z</time>
      </trkpt>
      <trkpt lat="46.63203" lon="5.92172">
        <ele>856.84</ele>
        <time>2019-11-12T10:45:38Z</time>
      </trkpt>
      <trkpt lat="46.63207" lon="5.92185">
        <ele>858.16</ele>
        <time>2019-11-12T10:45:59Z</time>
      </trkpt>
      <trkpt lat="46.63203" lon="5.92188">
        <ele>857.48</ele>
        <time>2019-11-12T10:46:25Z</time>
      </trkpt>
      <trkpt lat="46.63209" lon="5.92195">
        <ele>860.74</ele>
        <time>2019-11-12T10:46:46Z</time>
      </trkpt>
      <trkpt lat="46.63216" lon="5.922">
        <ele>863.81</ele>
        <time>2019-11-12T10:47:03Z</time>
      </trkpt>
      <trkpt lat="46.63223" lon="5.92212">
        <ele>865</ele>
        <time>2019-11-12T10:47:21Z</time>
      </trkpt>
      <trkpt lat="46.63236" lon="5.92226">
        <ele>863.97</ele>
        <time>2019-11-12T10:47:43Z</time>
      </trkpt>
      <trkpt lat="46.63249" lon="5.92235">
        <ele>861.3</ele>
        <time>2019-11-12T10:48:03Z</time>
      </trkpt>
      <trkpt lat="46.63253" lon="5.92241">
        <ele>860.82</ele>
        <time>2019-11-12T10:48:11Z</time>
      </trkpt>
      <trkpt lat="46.6326" lon="5.92254">
        <ele>858.65</ele>
        <time>2019-11-12T10:48:32Z</time>
      </trkpt>
      <trkpt lat="46.63263" lon="5.92256">
        <ele>858.33</ele>
        <time>2019-11-12T10:48:56Z</time>
      </trkpt>
      <trkpt lat="46.63266" lon="5.92255">
        <ele>856.43</ele>
        <time>2019-11-12T10:49:11Z</time>
      </trkpt>
      <trkpt lat="46.63274" lon="5.92259">
        <ele>854.32</ele>
        <time>2019-11-12T10:49:29Z</time>
      </trkpt>
      <trkpt lat="46.63274" lon="5.92263">
        <ele>852.65</ele>
        <time>2019-11-12T10:49:54Z</time>
      </trkpt>
      <trkpt lat="46.63279" lon="5.92268">
        <ele>849.57</ele>
        <time>2019-11-12T10:50:05Z</time>
      </trkpt>
      <trkpt lat="46.63293" lon="5.92285">
        <ele>848.8</ele>
        <time>2019-11-12T10:50:25Z</time>
      </trkpt>
      <trkpt lat="46.63296" lon="5.92287">
        <ele>847.99</ele>
        <time>2019-11-12T10:50:27Z</time>
      </trkpt>
      <trkpt lat="46.63303" lon="5.92302">
        <ele>849.49</ele>
        <time>2019-11-12T10:50:44Z</time>
      </trkpt>
      <trkpt lat="46.63308" lon="5.92319">
        <ele>848.06</ele>
        <time>2019-11-12T10:51:06Z</time>
      </trkpt>
      <trkpt lat="46.63315" lon="5.92329">
        <ele>847.12</ele>
        <time>2019-11-12T10:51:25Z</time>
      </trkpt>
      <trkpt lat="46.63317" lon="5.9233">
        <ele>843.34</ele>
        <time>2019-11-12T10:51:42Z</time>
      </trkpt>
      <trkpt lat="46.63313" lon="5.92323">
        <ele>843.55</ele>
        <time>2019-11-12T10:52:07Z</time>
      </trkpt>
      <trkpt lat="46.63311" lon="5.92313">
        <ele>842.16</ele>
        <time>2019-11-12T10:52:28Z</time>
      </trkpt>
      <trkpt lat="46.6332" lon="5.92322">
        <ele>839.61</ele>
        <time>2019-11-12T10:52:52Z</time>
      </trkpt>
      <trkpt lat="46.6332" lon="5.92321">
        <ele>836.55</ele>
        <time>2019-11-12T10:53:10Z</time>
      </trkpt>
      <trkpt lat="46.63317" lon="5.9231">
        <ele>833.32</ele>
        <time>2019-11-12T10:53:23Z</time>
      </trkpt>
      <trkpt lat="46.63322" lon="5.92311">
        <ele>829.66</ele>
        <time>2019-11-12T10:53:36Z</time>
      </trkpt>
      <trkpt lat="46.63324" lon="5.92313">
        <ele>827.69</ele>
        <time>2019-11-12T10:53:43Z</time>
      </trkpt>
      <trkpt lat="46.63328" lon="5.92313">
        <ele>827.37</ele>
        <time>2019-11-12T10:53:50Z</time>
      </trkpt>
      <trkpt lat="46.63335" lon="5.92315">
        <ele>826.22</ele>
        <time>2019-11-12T10:54:12Z</time>
      </trkpt>
      <trkpt lat="46.63336" lon="5.92317">
        <ele>826.26</ele>
        <time>2019-11-12T10:54:41Z</time>
      </trkpt>
      <trkpt lat="46.63333" lon="5.92317">
        <ele>826.91</ele>
        <time>2019-11-12T10:55:08Z</time>
      </trkpt>
      <trkpt lat="46.63337" lon="5.9232">
        <ele>824.92</ele>
        <time>2019-11-12T10:55:33Z</time>
      </trkpt>
      <trkpt lat="46.63346" lon="5.92324">
        <ele>822.09</ele>
        <time>2019-11-12T10:55:47Z</time>
      </trkpt>
      <trkpt lat="46.63353" lon="5.92315">
        <ele>820.13</ele>
        <time>2019-11-12T10:56:08Z</time>
      </trkpt>
      <trkpt lat="46.63354" lon="5.92321">
        <ele>819.54</ele>
        <time>2019-11-12T10:56:28Z</time>
      </trkpt>
      <trkpt lat="46.63356" lon="5.92323">
        <ele>816.8</ele>
        <time>2019-11-12T10:56:51Z</time>
      </trkpt>
      <trkpt lat="46.63355" lon="5.92325">
        <ele>816.9</ele>
        <time>2019-11-12T10:57:13Z</time>
      </trkpt>
      <trkpt lat="46.63362" lon="5.92324">
        <ele>814.69</ele>
        <time>2019-11-12T10:57:34Z</time>
      </trkpt>
      <trkpt lat="46.63363" lon="5.92323">
        <ele>811.21</ele>
        <time>2019-11-12T10:57:52Z</time>
      </trkpt>
      <trkpt lat="46.63366" lon="5.92323">
        <ele>809.68</ele>
        <time>2019-11-12T10:58:02Z</time>
      </trkpt>
      <trkpt lat="46.63371" lon="5.92324">
        <ele>808.28</ele>
        <time>2019-11-12T10:58:08Z</time>
      </trkpt>
      <trkpt lat="46.63383" lon="5.92331">
        <ele>805.54</ele>
        <time>2019-11-12T10:58:23Z</time>
      </trkpt>
      <trkpt lat="46.63388" lon="5.92334">
        <ele>803.7</ele>
        <time>2019-11-12T10:58:31Z</time>
      </trkpt>
      <trkpt lat="46.63394" lon="5.92333">
        <ele>800.29</ele>
        <time>2019-11-12T10:58:49Z</time>
      </trkpt>
      <trkpt lat="46.63399" lon="5.92332">
        <ele>797.06</ele>
        <time>2019-11-12T10:59:01Z</time>
      </trkpt>
      <trkpt lat="46.63406" lon="5.92334">
        <ele>794.05</ele>
        <time>2019-11-12T10:59:12Z</time>
      </trkpt>
      <trkpt lat="46.63413" lon="5.92335">
        <ele>791.36</ele>
        <time>2019-11-12T10:59:28Z</time>
      </trkpt>
      <trkpt lat="46.63416" lon="5.92326">
        <ele>788.32</ele>
        <time>2019-11-12T10:59:46Z</time>
      </trkpt>
      <trkpt lat="46.6342" lon="5.92314">
        <ele>785.73</ele>
        <time>2019-11-12T11:00:05Z</time>
      </trkpt>
      <trkpt lat="46.63424" lon="5.92309">
        <ele>783.79</ele>
        <time>2019-11-12T11:00:28Z</time>
      </trkpt>
      <trkpt lat="46.63431" lon="5.9231">
        <ele>780.51</ele>
        <time>2019-11-12T11:00:40Z</time>
      </trkpt>
      <trkpt lat="46.63432" lon="5.92301">
        <ele>777.54</ele>
        <time>2019-11-12T11:00:55Z</time>
      </trkpt>
      <trkpt lat="46.63432" lon="5.92297">
        <ele>778.04</ele>
        <time>2019-11-12T11:01:01Z</time>
      </trkpt>
      <trkpt lat="46.63427" lon="5.92287">
        <ele>777.86</ele>
        <time>2019-11-12T11:01:27Z</time>
      </trkpt>
      <trkpt lat="46.63426" lon="5.92283">
        <ele>778.35</ele>
        <time>2019-11-12T11:01:54Z</time>
      </trkpt>
      <trkpt lat="46.63423" lon="5.92294">
        <ele>778.48</ele>
        <time>2019-11-12T11:02:15Z</time>
      </trkpt>
      <trkpt lat="46.63425" lon="5.923">
        <ele>779.22</ele>
        <time>2019-11-12T11:02:44Z</time>
      </trkpt>
      <trkpt lat="46.63416" lon="5.92312">
        <ele>780.08</ele>
        <time>2019-11-12T11:03:08Z</time>
      </trkpt>
      <trkpt lat="46.63419" lon="5.92311">
        <ele>780.03</ele>
        <time>2019-11-12T11:03:36Z</time>
      </trkpt>
      <trkpt lat="46.63422" lon="5.92305">
        <ele>780.31</ele>
        <time>2019-11-12T11:04:00Z</time>
      </trkpt>
      <trkpt lat="46.63425" lon="5.92291">
        <ele>780.65</ele>
        <time>2019-11-12T11:04:28Z</time>
      </trkpt>
      <trkpt lat="46.63425" lon="5.92291">
        <ele>780.34</ele>
        <time>2019-11-12T11:04:47Z</time>
      </trkpt>
      <trkpt lat="46.63426" lon="5.92295">
        <ele>780.74</ele>
        <time>2019-11-12T11:05:06Z</time>
      </trkpt>
      <trkpt lat="46.63424" lon="5.92289">
        <ele>780.14</ele>
        <time>2019-11-12T11:05:30Z</time>
      </trkpt>
      <trkpt lat="46.6342" lon="5.92283">
        <ele>779.52</ele>
        <time>2019-11-12T11:05:36Z</time>
      </trkpt>
      <trkpt lat="46.63416" lon="5.92276">
        <ele>779.01</ele>
        <time>2019-11-12T11:05:42Z</time>
      </trkpt>
      <trkpt lat="46.63416" lon="5.92273">
        <ele>779.44</ele>
        <time>2019-11-12T11:05:53Z</time>
      </trkpt>
      <trkpt lat="46.6342" lon="5.92277">
        <ele>776.59</ele>
        <time>2019-11-12T11:06:09Z</time>
      </trkpt>
      <trkpt lat="46.63428" lon="5.92284">
        <ele>774.65</ele>
        <time>2019-11-12T11:06:27Z</time>
      </trkpt>
      <trkpt lat="46.63433" lon="5.92286">
        <ele>772.86</ele>
        <time>2019-11-12T11:06:36Z</time>
      </trkpt>
      <trkpt lat="46.63438" lon="5.92287">
        <ele>772.41</ele>
        <time>2019-11-12T11:06:45Z</time>
      </trkpt>
      <trkpt lat="46.63441" lon="5.92289">
        <ele>772.54</ele>
        <time>2019-11-12T11:07:14Z</time>
      </trkpt>
      <trkpt lat="46.63441" lon="5.92289">
        <ele>772.23</ele>
        <time>2019-11-12T11:07:16Z</time>
      </trkpt>
      <trkpt lat="46.63445" lon="5.92289">
        <ele>771.82</ele>
        <time>2019-11-12T11:07:41Z</time>
      </trkpt>
      <trkpt lat="46.63458" lon="5.92284">
        <ele>769.5</ele>
        <time>2019-11-12T11:08:01Z</time>
      </trkpt>
      <trkpt lat="46.63463" lon="5.9228">
        <ele>768.13</ele>
        <time>2019-11-12T11:08:21Z</time>
      </trkpt>
      <trkpt lat="46.63466" lon="5.92274">
        <ele>766.74</ele>
        <time>2019-11-12T11:08:38Z</time>
      </trkpt>
      <trkpt lat="46.63478" lon="5.9227">
        <ele>764.16</ele>
        <time>2019-11-12T11:08:55Z</time>
      </trkpt>
      <trkpt lat="46.63484" lon="5.92258">
        <ele>761.33</ele>
        <time>2019-11-12T11:09:11Z</time>
      </trkpt>
      <trkpt lat="46.63488" lon="5.92251">
        <ele>760.38</ele>
        <time>2019-11-12T11:09:26Z</time>
      </trkpt>
      <trkpt lat="46.63487" lon="5.92256">
        <ele>761.14</ele>
        <time>2019-11-12T11:09:47Z</time>
      </trkpt>
      <trkpt lat="46.63486" lon="5.92217">
        <ele>761.29</ele>
        <time>2019-11-12T11:10:08Z</time>
      </trkpt>
      <trkpt lat="46.63486" lon="5.92216">
        <ele>760.85</ele>
        <time>2019-11-12T11:10:09Z</time>
      </trkpt>
      <trkpt lat="46.63479" lon="5.92199">
        <ele>761.8</ele>
        <time>2019-11-12T11:10:25Z</time>
      </trkpt>
      <trkpt lat="46.63476" lon="5.92194">
        <ele>761.88</ele>
        <time>2019-11-12T11:10:29Z</time>
      </trkpt>
      <trkpt lat="46.63468" lon="5.92184">
        <ele>762.87</ele>
        <time>2019-11-12T11:10:43Z</time>
      </trkpt>
      <trkpt lat="46.63457" lon="5.92162">
        <ele>762.41</ele>
        <time>2019-11-12T11:11:03Z</time>
      </trkpt>
      <trkpt lat="46.63455" lon="5.92159">
        <ele>762.35</ele>
        <time>2019-11-12T11:11:07Z</time>
      </trkpt>
      <trkpt lat="46.63444" lon="5.92142">
        <ele>764.06</ele>
        <time>2019-11-12T11:11:22Z</time>
      </trkpt>
      <trkpt lat="46.63439" lon="5.92122">
        <ele>764.27</ele>
        <time>2019-11-12T11:11:36Z</time>
      </trkpt>
      <trkpt lat="46.63438" lon="5.92122">
        <ele>764.03</ele>
        <time>2019-11-12T11:11:38Z</time>
      </trkpt>
      <trkpt lat="46.63436" lon="5.92116">
        <ele>764.32</ele>
        <time>2019-11-12T11:11:43Z</time>
      </trkpt>
      <trkpt lat="46.63434" lon="5.92114">
        <ele>763.51</ele>
        <time>2019-11-12T11:11:57Z</time>
      </trkpt>
      <trkpt lat="46.63443" lon="5.92126">
        <ele>764.17</ele>
        <time>2019-11-12T11:12:11Z</time>
      </trkpt>
      <trkpt lat="46.63446" lon="5.92117">
        <ele>763.84</ele>
        <time>2019-11-12T11:12:18Z</time>
      </trkpt>
      <trkpt lat="46.63441" lon="5.92106">
        <ele>763.8</ele>
        <time>2019-11-12T11:12:28Z</time>
      </trkpt>
      <trkpt lat="46.6344" lon="5.92104">
        <ele>763.92</ele>
        <time>2019-11-12T11:12:30Z</time>
      </trkpt>
      <trkpt lat="46.63429" lon="5.92087">
        <ele>764.59</ele>
        <time>2019-11-12T11:12:44Z</time>
      </trkpt>
      <trkpt lat="46.63429" lon="5.92086">
        <ele>764.17</ele>
        <time>2019-11-12T11:12:45Z</time>
      </trkpt>
      <trkpt lat="46.6342" lon="5.92071">
        <ele>765.98</ele>
        <time>2019-11-12T11:12:58Z</time>
      </trkpt>
      <trkpt lat="46.63414" lon="5.92058">
        <ele>765.19</ele>
        <time>2019-11-12T11:13:09Z</time>
      </trkpt>
      <trkpt lat="46.63407" lon="5.92037">
        <ele>766.83</ele>
        <time>2019-11-12T11:13:24Z</time>
      </trkpt>
      <trkpt lat="46.63402" lon="5.92007">
        <ele>767.11</ele>
        <time>2019-11-12T11:13:42Z</time>
      </trkpt>
      <trkpt lat="46.63401" lon="5.91985">
        <ele>767.26</ele>
        <time>2019-11-12T11:13:55Z</time>
      </trkpt>
      <trkpt lat="46.63401" lon="5.91949">
        <ele>767.91</ele>
        <time>2019-11-12T11:14:18Z</time>
      </trkpt>
      <trkpt lat="46.63401" lon="5.91949">
        <ele>767.87</ele>
        <time>2019-11-12T11:14:36Z</time>
      </trkpt>
      <trkpt lat="46.63401" lon="5.91949">
        <ele>767.85</ele>
        <time>2019-11-12T11:15:00Z</time>
      </trkpt>
      <trkpt lat="46.63398" lon="5.91948">
        <ele>768.31</ele>
        <time>2019-11-12T11:15:10Z</time>
      </trkpt>
      <trkpt lat="46.63395" lon="5.91947">
        <ele>767.83</ele>
        <time>2019-11-12T11:15:12Z</time>
      </trkpt>
      <trkpt lat="46.6339" lon="5.91943">
        <ele>767.89</ele>
        <time>2019-11-12T11:15:16Z</time>
      </trkpt>
      <trkpt lat="46.63381" lon="5.91936">
        <ele>767.45</ele>
        <time>2019-11-12T11:15:23Z</time>
      </trkpt>
      <trkpt lat="46.63373" lon="5.9193">
        <ele>767.99</ele>
        <time>2019-11-12T11:15:33Z</time>
      </trkpt>
      <trkpt lat="46.63369" lon="5.91938">
        <ele>767.67</ele>
        <time>2019-11-12T11:15:41Z</time>
      </trkpt>
      <trkpt lat="46.63358" lon="5.91941">
        <ele>766.78</ele>
        <time>2019-11-12T11:15:51Z</time>
      </trkpt>
      <trkpt lat="46.6335" lon="5.91933">
        <ele>766.87</ele>
        <time>2019-11-12T11:15:59Z</time>
      </trkpt>
      <trkpt lat="46.63341" lon="5.91932">
        <ele>766.69</ele>
        <time>2019-11-12T11:16:05Z</time>
      </trkpt>
      <trkpt lat="46.63329" lon="5.91923">
        <ele>765.83</ele>
        <time>2019-11-12T11:16:16Z</time>
      </trkpt>
      <trkpt lat="46.63323" lon="5.91918">
        <ele>766.19</ele>
        <time>2019-11-12T11:16:22Z</time>
      </trkpt>
      <trkpt lat="46.63313" lon="5.9191">
        <ele>765.79</ele>
        <time>2019-11-12T11:16:32Z</time>
      </trkpt>
      <trkpt lat="46.63309" lon="5.91898">
        <ele>765.67</ele>
        <time>2019-11-12T11:16:45Z</time>
      </trkpt>
      <trkpt lat="46.63308" lon="5.91892">
        <ele>766.2</ele>
        <time>2019-11-12T11:16:49Z</time>
      </trkpt>
      <trkpt lat="46.63305" lon="5.91883">
        <ele>766.21</ele>
        <time>2019-11-12T11:17:04Z</time>
      </trkpt>
      <trkpt lat="46.63306" lon="5.9189">
        <ele>765.61</ele>
        <time>2019-11-12T11:17:09Z</time>
      </trkpt>
      <trkpt lat="46.63305" lon="5.91901">
        <ele>766.34</ele>
        <time>2019-11-12T11:17:22Z</time>
      </trkpt>
      <trkpt lat="46.63305" lon="5.91899">
        <ele>765.81</ele>
        <time>2019-11-12T11:17:39Z</time>
      </trkpt>
      <trkpt lat="46.63305" lon="5.919">
        <ele>766.13</ele>
        <time>2019-11-12T11:18:11Z</time>
      </trkpt>
      <trkpt lat="46.63305" lon="5.91897">
        <ele>766.19</ele>
        <time>2019-11-12T11:18:50Z</time>
      </trkpt>
      <trkpt lat="46.63308" lon="5.9191">
        <ele>765.83</ele>
        <time>2019-11-12T11:19:11Z</time>
      </trkpt>
      <trkpt lat="46.63317" lon="5.9192">
        <ele>766.73</ele>
        <time>2019-11-12T11:19:22Z</time>
      </trkpt>
      <trkpt lat="46.6334" lon="5.91935">
        <ele>767.41</ele>
        <time>2019-11-12T11:19:36Z</time>
      </trkpt>
      <trkpt lat="46.63345" lon="5.91938">
        <ele>767.31</ele>
        <time>2019-11-12T11:19:41Z</time>
      </trkpt>
      <trkpt lat="46.63347" lon="5.9194">
        <ele>767.27</ele>
        <time>2019-11-12T11:19:43Z</time>
      </trkpt>
      <trkpt lat="46.63364" lon="5.91946">
        <ele>767.95</ele>
        <time>2019-11-12T11:19:55Z</time>
      </trkpt>
      <trkpt lat="46.63377" lon="5.91935">
        <ele>768.35</ele>
        <time>2019-11-12T11:20:09Z</time>
      </trkpt>
      <trkpt lat="46.63396" lon="5.9194">
        <ele>768.45</ele>
        <time>2019-11-12T11:20:23Z</time>
      </trkpt>
      <trkpt lat="46.63402" lon="5.91942">
        <ele>768.46</ele>
        <time>2019-11-12T11:20:35Z</time>
      </trkpt>
      <trkpt lat="46.63405" lon="5.91942">
        <ele>768.47</ele>
        <time>2019-11-12T11:21:06Z</time>
      </trkpt>
      <trkpt lat="46.63409" lon="5.91942">
        <ele>769.16</ele>
        <time>2019-11-12T11:21:23Z</time>
      </trkpt>
      <trkpt lat="46.63408" lon="5.91936">
        <ele>770.31</ele>
        <time>2019-11-12T11:21:45Z</time>
      </trkpt>
      <trkpt lat="46.63416" lon="5.91933">
        <ele>771.58</ele>
        <time>2019-11-12T11:22:04Z</time>
      </trkpt>
      <trkpt lat="46.63424" lon="5.91937">
        <ele>771.6</ele>
        <time>2019-11-12T11:22:22Z</time>
      </trkpt>
      <trkpt lat="46.63446" lon="5.91937">
        <ele>772.53</ele>
        <time>2019-11-12T11:22:43Z</time>
      </trkpt>
      <trkpt lat="46.63451" lon="5.91931">
        <ele>773.4</ele>
        <time>2019-11-12T11:22:49Z</time>
      </trkpt>
      <trkpt lat="46.63455" lon="5.91927">
        <ele>774.05</ele>
        <time>2019-11-12T11:22:52Z</time>
      </trkpt>
      <trkpt lat="46.63463" lon="5.91918">
        <ele>774.43</ele>
        <time>2019-11-12T11:23:00Z</time>
      </trkpt>
      <trkpt lat="46.63467" lon="5.91897">
        <ele>776.47</ele>
        <time>2019-11-12T11:23:17Z</time>
      </trkpt>
      <trkpt lat="46.63467" lon="5.91896">
        <ele>776.01</ele>
        <time>2019-11-12T11:23:18Z</time>
      </trkpt>
      <trkpt lat="46.6347" lon="5.9188">
        <ele>776.94</ele>
        <time>2019-11-12T11:23:34Z</time>
      </trkpt>
      <trkpt lat="46.63473" lon="5.91868">
        <ele>778.68</ele>
        <time>2019-11-12T11:23:46Z</time>
      </trkpt>
      <trkpt lat="46.63485" lon="5.9185">
        <ele>778.46</ele>
        <time>2019-11-12T11:24:06Z</time>
      </trkpt>
      <trkpt lat="46.63493" lon="5.91833">
        <ele>778.51</ele>
        <time>2019-11-12T11:24:15Z</time>
      </trkpt>
      <trkpt lat="46.63501" lon="5.91816">
        <ele>779.82</ele>
        <time>2019-11-12T11:24:30Z</time>
      </trkpt>
      <trkpt lat="46.63512" lon="5.91803">
        <ele>780.33</ele>
        <time>2019-11-12T11:24:46Z</time>
      </trkpt>
      <trkpt lat="46.6353" lon="5.91784">
        <ele>780.87</ele>
        <time>2019-11-12T11:25:05Z</time>
      </trkpt>
      <trkpt lat="46.63548" lon="5.91772">
        <ele>780.98</ele>
        <time>2019-11-12T11:25:25Z</time>
      </trkpt>
      <trkpt lat="46.6357" lon="5.91762">
        <ele>779.91</ele>
        <time>2019-11-12T11:25:47Z</time>
      </trkpt>
      <trkpt lat="46.63582" lon="5.91752">
        <ele>779.35</ele>
        <time>2019-11-12T11:25:58Z</time>
      </trkpt>
      <trkpt lat="46.63594" lon="5.91734">
        <ele>778.25</ele>
        <time>2019-11-12T11:26:10Z</time>
      </trkpt>
      <trkpt lat="46.63598" lon="5.91718">
        <ele>777.36</ele>
        <time>2019-11-12T11:26:21Z</time>
      </trkpt>
      <trkpt lat="46.63601" lon="5.91703">
        <ele>776.82</ele>
        <time>2019-11-12T11:26:29Z</time>
      </trkpt>
      <trkpt lat="46.63606" lon="5.91688">
        <ele>776.42</ele>
        <time>2019-11-12T11:26:36Z</time>
      </trkpt>
      <trkpt lat="46.6361" lon="5.91669">
        <ele>776.18</ele>
        <time>2019-11-12T11:26:48Z</time>
      </trkpt>
      <trkpt lat="46.63612" lon="5.91658">
        <ele>775.97</ele>
        <time>2019-11-12T11:26:54Z</time>
      </trkpt>
      <trkpt lat="46.63613" lon="5.91647">
        <ele>775.76</ele>
        <time>2019-11-12T11:26:57Z</time>
      </trkpt>
      <trkpt lat="46.63616" lon="5.91638">
        <ele>775.92</ele>
        <time>2019-11-12T11:27:00Z</time>
      </trkpt>
      <trkpt lat="46.63616" lon="5.91628">
        <ele>775.93</ele>
        <time>2019-11-12T11:27:05Z</time>
      </trkpt>
      <trkpt lat="46.63624" lon="5.91606">
        <ele>775.88</ele>
        <time>2019-11-12T11:27:16Z</time>
      </trkpt>
      <trkpt lat="46.63636" lon="5.9158">
        <ele>776.28</ele>
        <time>2019-11-12T11:27:35Z</time>
      </trkpt>
      <trkpt lat="46.63641" lon="5.91567">
        <ele>776.17</ele>
        <time>2019-11-12T11:27:48Z</time>
      </trkpt>
      <trkpt lat="46.63641" lon="5.91565">
        <ele>776.16</ele>
        <time>2019-11-12T11:27:49Z</time>
      </trkpt>
      <trkpt lat="46.63643" lon="5.91563">
        <ele>777.01</ele>
        <time>2019-11-12T11:27:51Z</time>
      </trkpt>
      <trkpt lat="46.63645" lon="5.91557">
        <ele>776.31</ele>
        <time>2019-11-12T11:27:55Z</time>
      </trkpt>
      <trkpt lat="46.63649" lon="5.91549">
        <ele>776.17</ele>
        <time>2019-11-12T11:28:00Z</time>
      </trkpt>
      <trkpt lat="46.63653" lon="5.91536">
        <ele>776.25</ele>
        <time>2019-11-12T11:28:09Z</time>
      </trkpt>
      <trkpt lat="46.63655" lon="5.91531">
        <ele>776.32</ele>
        <time>2019-11-12T11:28:13Z</time>
      </trkpt>
      <trkpt lat="46.63659" lon="5.91511">
        <ele>775.65</ele>
        <time>2019-11-12T11:28:24Z</time>
      </trkpt>
      <trkpt lat="46.63661" lon="5.91489">
        <ele>775.24</ele>
        <time>2019-11-12T11:28:38Z</time>
      </trkpt>
      <trkpt lat="46.63661" lon="5.91486">
        <ele>775.1</ele>
        <time>2019-11-12T11:28:40Z</time>
      </trkpt>
      <trkpt lat="46.6366" lon="5.91476">
        <ele>775.01</ele>
        <time>2019-11-12T11:28:52Z</time>
      </trkpt>
      <trkpt lat="46.6366" lon="5.91469">
        <ele>775.27</ele>
        <time>2019-11-12T11:29:03Z</time>
      </trkpt>
      <trkpt lat="46.63662" lon="5.91463">
        <ele>776.07</ele>
        <time>2019-11-12T11:29:19Z</time>
      </trkpt>
      <trkpt lat="46.63665" lon="5.91455">
        <ele>776.23</ele>
        <time>2019-11-12T11:29:25Z</time>
      </trkpt>
      <trkpt lat="46.63674" lon="5.91437">
        <ele>775.55</ele>
        <time>2019-11-12T11:29:39Z</time>
      </trkpt>
      <trkpt lat="46.63684" lon="5.91424">
        <ele>775.88</ele>
        <time>2019-11-12T11:29:52Z</time>
      </trkpt>
      <trkpt lat="46.63698" lon="5.91415">
        <ele>775.51</ele>
        <time>2019-11-12T11:30:07Z</time>
      </trkpt>
      <trkpt lat="46.6371" lon="5.91408">
        <ele>773.28</ele>
        <time>2019-11-12T11:30:19Z</time>
      </trkpt>
      <trkpt lat="46.63721" lon="5.91383">
        <ele>771.32</ele>
        <time>2019-11-12T11:30:36Z</time>
      </trkpt>
      <trkpt lat="46.63726" lon="5.91366">
        <ele>769.32</ele>
        <time>2019-11-12T11:30:49Z</time>
      </trkpt>
      <trkpt lat="46.63728" lon="5.91363">
        <ele>769.34</ele>
        <time>2019-11-12T11:30:51Z</time>
      </trkpt>
      <trkpt lat="46.63734" lon="5.91352">
        <ele>769.35</ele>
        <time>2019-11-12T11:31:00Z</time>
      </trkpt>
      <trkpt lat="46.63719" lon="5.91369">
        <ele>766.76</ele>
        <time>2019-11-12T11:31:18Z</time>
      </trkpt>
      <trkpt lat="46.63717" lon="5.91357">
        <ele>765.36</ele>
        <time>2019-11-12T11:31:32Z</time>
      </trkpt>
      <trkpt lat="46.63716" lon="5.9134">
        <ele>764.33</ele>
        <time>2019-11-12T11:31:38Z</time>
      </trkpt>
      <trkpt lat="46.63735" lon="5.91317">
        <ele>760.65</ele>
        <time>2019-11-12T11:31:55Z</time>
      </trkpt>
      <trkpt lat="46.63724" lon="5.91308">
        <ele>760.15</ele>
        <time>2019-11-12T11:32:11Z</time>
      </trkpt>
      <trkpt lat="46.63732" lon="5.91301">
        <ele>760.55</ele>
        <time>2019-11-12T11:32:25Z</time>
      </trkpt>
      <trkpt lat="46.63804" lon="5.91283">
        <ele>760.57</ele>
        <time>2019-11-12T11:32:33Z</time>
      </trkpt>
      <trkpt lat="46.63837" lon="5.91299">
        <ele>761.58</ele>
        <time>2019-11-12T11:32:46Z</time>
      </trkpt>
      <trkpt lat="46.63875" lon="5.91328">
        <ele>759.69</ele>
        <time>2019-11-12T11:33:06Z</time>
      </trkpt>
      <trkpt lat="46.63899" lon="5.91353">
        <ele>758.35</ele>
        <time>2019-11-12T11:33:11Z</time>
      </trkpt>
      <trkpt lat="46.63907" lon="5.91354">
        <ele>756.98</ele>
        <time>2019-11-12T11:33:23Z</time>
      </trkpt>
      <trkpt lat="46.63935" lon="5.91423">
        <ele>753.61</ele>
        <time>2019-11-12T11:33:37Z</time>
      </trkpt>
      <trkpt lat="46.63975" lon="5.91467">
        <ele>750.23</ele>
        <time>2019-11-12T11:33:57Z</time>
      </trkpt>
      <trkpt lat="46.64026" lon="5.91538">
        <ele>750.14</ele>
        <time>2019-11-12T11:33:58Z</time>
      </trkpt>
      <trkpt lat="46.64057" lon="5.91576">
        <ele>747.12</ele>
        <time>2019-11-12T11:34:13Z</time>
      </trkpt>
      <trkpt lat="46.64081" lon="5.9159">
        <ele>744.06</ele>
        <time>2019-11-12T11:34:28Z</time>
      </trkpt>
      <trkpt lat="46.64087" lon="5.91594">
        <ele>744.08</ele>
        <time>2019-11-12T11:34:29Z</time>
      </trkpt>
      <trkpt lat="46.64093" lon="5.91592">
        <ele>744.13</ele>
        <time>2019-11-12T11:34:37Z</time>
      </trkpt>
      <trkpt lat="46.64132" lon="5.91655">
        <ele>742.92</ele>
        <time>2019-11-12T11:34:52Z</time>
      </trkpt>
      <trkpt lat="46.64188" lon="5.91738">
        <ele>739.65</ele>
        <time>2019-11-12T11:35:04Z</time>
      </trkpt>
      <trkpt lat="46.64202" lon="5.91759">
        <ele>737.94</ele>
        <time>2019-11-12T11:35:22Z</time>
      </trkpt>
      <trkpt lat="46.64252" lon="5.91787">
        <ele>736.28</ele>
        <time>2019-11-12T11:35:36Z</time>
      </trkpt>
      <trkpt lat="46.64337" lon="5.91871">
        <ele>737.34</ele>
        <time>2019-11-12T11:35:53Z</time>
      </trkpt>
      <trkpt lat="46.64373" lon="5.91912">
        <ele>737.93</ele>
        <time>2019-11-12T11:36:10Z</time>
      </trkpt>
      <trkpt lat="46.64401" lon="5.91929">
        <ele>738.03</ele>
        <time>2019-11-12T11:36:32Z</time>
      </trkpt>
      <trkpt lat="46.64436" lon="5.91944">
        <ele>738.8</ele>
        <time>2019-11-12T11:36:55Z</time>
      </trkpt>
      <trkpt lat="46.64451" lon="5.91943">
        <ele>743.46</ele>
        <time>2019-11-12T11:42:14Z</time>
      </trkpt>
      <trkpt lat="46.64477" lon="5.91953">
        <ele>743.2</ele>
        <time>2019-11-12T11:42:36Z</time>
      </trkpt>
      <trkpt lat="46.64488" lon="5.91914">
        <ele>745.15</ele>
        <time>2019-11-12T11:43:31Z</time>
      </trkpt>
      <trkpt lat="46.64515" lon="5.91832">
        <ele>744.48</ele>
        <time>2019-11-12T11:43:35Z</time>
      </trkpt>
      <trkpt lat="46.64542" lon="5.91788">
        <ele>744.38</ele>
        <time>2019-11-12T11:43:53Z</time>
      </trkpt>
      <trkpt lat="46.64569" lon="5.91756">
        <ele>744.68</ele>
        <time>2019-11-12T11:44:08Z</time>
      </trkpt>
      <trkpt lat="46.64612" lon="5.91686">
        <ele>744.23</ele>
        <time>2019-11-12T11:44:14Z</time>
      </trkpt>
      <trkpt lat="46.64622" lon="5.9167">
        <ele>744.49</ele>
        <time>2019-11-12T11:44:17Z</time>
      </trkpt>
      <trkpt lat="46.64639" lon="5.91622">
        <ele>744.98</ele>
        <time>2019-11-12T11:45:21Z</time>
      </trkpt>
      <trkpt lat="46.64643" lon="5.91496">
        <ele>745.34</ele>
        <time>2019-11-12T11:46:07Z</time>
      </trkpt>
      <trkpt lat="46.64632" lon="5.91468">
        <ele>749.95</ele>
        <time>2019-11-12T12:10:45Z</time>
      </trkpt>
      <trkpt lat="46.64588" lon="5.91432">
        <ele>750.01</ele>
        <time>2019-11-12T12:10:47Z</time>
      </trkpt>
      <trkpt lat="46.64544" lon="5.91391">
        <ele>750.33</ele>
        <time>2019-11-12T12:10:52Z</time>
      </trkpt>
      <trkpt lat="46.64498" lon="5.91337">
        <ele>750.72</ele>
        <time>2019-11-12T12:11:03Z</time>
      </trkpt>
      <trkpt lat="46.64496" lon="5.91309">
        <ele>750.08</ele>
        <time>2019-11-12T12:11:20Z</time>
      </trkpt>
      <trkpt lat="46.64497" lon="5.91292">
        <ele>749.38</ele>
        <time>2019-11-12T12:11:37Z</time>
      </trkpt>
      <trkpt lat="46.64506" lon="5.91191">
        <ele>747.52</ele>
        <time>2019-11-12T12:11:55Z</time>
      </trkpt>
      <trkpt lat="46.64498" lon="5.91137">
        <ele>745.58</ele>
        <time>2019-11-12T12:12:13Z</time>
      </trkpt>
      <trkpt lat="46.64483" lon="5.91076">
        <ele>745.55</ele>
        <time>2019-11-12T12:12:32Z</time>
      </trkpt>
      <trkpt lat="46.64463" lon="5.90996">
        <ele>744.49</ele>
        <time>2019-11-12T12:12:49Z</time>
      </trkpt>
      <trkpt lat="46.64447" lon="5.90929">
        <ele>743.61</ele>
        <time>2019-11-12T12:13:09Z</time>
      </trkpt>
      <trkpt lat="46.64423" lon="5.90813">
        <ele>742.39</ele>
        <time>2019-11-12T12:13:29Z</time>
      </trkpt>
      <trkpt lat="46.64422" lon="5.90791">
        <ele>742.13</ele>
        <time>2019-11-12T12:13:48Z</time>
      </trkpt>
      <trkpt lat="46.64419" lon="5.90724">
        <ele>742.08</ele>
        <time>2019-11-12T12:13:54Z</time>
      </trkpt>
      <trkpt lat="46.6441" lon="5.90659">
        <ele>741.86</ele>
        <time>2019-11-12T12:14:09Z</time>
      </trkpt>
      <trkpt lat="46.64395" lon="5.90603">
        <ele>741.79</ele>
        <time>2019-11-12T12:14:28Z</time>
      </trkpt>
      <trkpt lat="46.64395" lon="5.90568">
        <ele>741.41</ele>
        <time>2019-11-12T12:14:29Z</time>
      </trkpt>
      <trkpt lat="46.64398" lon="5.90534">
        <ele>741.18</ele>
        <time>2019-11-12T12:14:35Z</time>
      </trkpt>
      <trkpt lat="46.64396" lon="5.90475">
        <ele>742.15</ele>
        <time>2019-11-12T12:14:49Z</time>
      </trkpt>
      <trkpt lat="46.6439" lon="5.90453">
        <ele>742.28</ele>
        <time>2019-11-12T12:14:55Z</time>
      </trkpt>
      <trkpt lat="46.64376" lon="5.90399">
        <ele>743.46</ele>
        <time>2019-11-12T12:15:03Z</time>
      </trkpt>
      <trkpt lat="46.64365" lon="5.90389">
        <ele>744.72</ele>
        <time>2019-11-12T12:15:13Z</time>
      </trkpt>
      <trkpt lat="46.64303" lon="5.90386">
        <ele>744.89</ele>
        <time>2019-11-12T12:15:17Z</time>
      </trkpt>
      <trkpt lat="46.64291" lon="5.90391">
        <ele>744.69</ele>
        <time>2019-11-12T12:15:22Z</time>
      </trkpt>
      <trkpt lat="46.6428" lon="5.90406">
        <ele>745.86</ele>
        <time>2019-11-12T12:15:36Z</time>
      </trkpt>
      <trkpt lat="46.64261" lon="5.90424">
        <ele>745.81</ele>
        <time>2019-11-12T12:15:41Z</time>
      </trkpt>
      <trkpt lat="46.64248" lon="5.90434">
        <ele>746.48</ele>
        <time>2019-11-12T12:15:54Z</time>
      </trkpt>
      <trkpt lat="46.64242" lon="5.90421">
        <ele>747.96</ele>
        <time>2019-11-12T12:16:07Z</time>
      </trkpt>
      <trkpt lat="46.64238" lon="5.90411">
        <ele>749.26</ele>
        <time>2019-11-12T12:16:16Z</time>
      </trkpt>
      <trkpt lat="46.64236" lon="5.90407">
        <ele>749.12</ele>
        <time>2019-11-12T12:16:19Z</time>
      </trkpt>
      <trkpt lat="46.64235" lon="5.90401">
        <ele>749.75</ele>
        <time>2019-11-12T12:16:23Z</time>
      </trkpt>
      <trkpt lat="46.64233" lon="5.90394">
        <ele>750.03</ele>
        <time>2019-11-12T12:16:27Z</time>
      </trkpt>
      <trkpt lat="46.64233" lon="5.9039">
        <ele>750.56</ele>
        <time>2019-11-12T12:16:30Z</time>
      </trkpt>
      <trkpt lat="46.6423" lon="5.90366">
        <ele>751.57</ele>
        <time>2019-11-12T12:16:45Z</time>
      </trkpt>
      <trkpt lat="46.64228" lon="5.90357">
        <ele>750.18</ele>
        <time>2019-11-12T12:16:51Z</time>
      </trkpt>
      <trkpt lat="46.64226" lon="5.9035">
        <ele>753.08</ele>
        <time>2019-11-12T12:16:56Z</time>
      </trkpt>
      <trkpt lat="46.64221" lon="5.90348">
        <ele>753.14</ele>
        <time>2019-11-12T12:17:08Z</time>
      </trkpt>
      <trkpt lat="46.64216" lon="5.90344">
        <ele>753.17</ele>
        <time>2019-11-12T12:17:14Z</time>
      </trkpt>
      <trkpt lat="46.64209" lon="5.90337">
        <ele>754.2</ele>
        <time>2019-11-12T12:17:22Z</time>
      </trkpt>
      <trkpt lat="46.64198" lon="5.9033">
        <ele>754.9</ele>
        <time>2019-11-12T12:17:35Z</time>
      </trkpt>
      <trkpt lat="46.64181" lon="5.90323">
        <ele>756.38</ele>
        <time>2019-11-12T12:17:51Z</time>
      </trkpt>
      <trkpt lat="46.64171" lon="5.90318">
        <ele>756.75</ele>
        <time>2019-11-12T12:18:02Z</time>
      </trkpt>
      <trkpt lat="46.64155" lon="5.90309">
        <ele>759.59</ele>
        <time>2019-11-12T12:18:19Z</time>
      </trkpt>
      <trkpt lat="46.64144" lon="5.90301">
        <ele>762.79</ele>
        <time>2019-11-12T12:18:37Z</time>
      </trkpt>
      <trkpt lat="46.64133" lon="5.90291">
        <ele>765.56</ele>
        <time>2019-11-12T12:18:59Z</time>
      </trkpt>
      <trkpt lat="46.64128" lon="5.90279">
        <ele>766.53</ele>
        <time>2019-11-12T12:19:20Z</time>
      </trkpt>
      <trkpt lat="46.6412" lon="5.9027">
        <ele>768.73</ele>
        <time>2019-11-12T12:19:40Z</time>
      </trkpt>
      <trkpt lat="46.64112" lon="5.90261">
        <ele>771.32</ele>
        <time>2019-11-12T12:20:01Z</time>
      </trkpt>
      <trkpt lat="46.64103" lon="5.90248">
        <ele>773.27</ele>
        <time>2019-11-12T12:20:18Z</time>
      </trkpt>
      <trkpt lat="46.64093" lon="5.90233">
        <ele>775.88</ele>
        <time>2019-11-12T12:20:37Z</time>
      </trkpt>
      <trkpt lat="46.64087" lon="5.90219">
        <ele>777.88</ele>
        <time>2019-11-12T12:20:58Z</time>
      </trkpt>
      <trkpt lat="46.64088" lon="5.90219">
        <ele>778.19</ele>
        <time>2019-11-12T12:21:23Z</time>
      </trkpt>
      <trkpt lat="46.64085" lon="5.90223">
        <ele>777.61</ele>
        <time>2019-11-12T12:21:45Z</time>
      </trkpt>
      <trkpt lat="46.64079" lon="5.90215">
        <ele>780.22</ele>
        <time>2019-11-12T12:21:59Z</time>
      </trkpt>
      <trkpt lat="46.64073" lon="5.90191">
        <ele>779.9</ele>
        <time>2019-11-12T12:22:18Z</time>
      </trkpt>
      <trkpt lat="46.64064" lon="5.90179">
        <ele>780.54</ele>
        <time>2019-11-12T12:22:34Z</time>
      </trkpt>
      <trkpt lat="46.64058" lon="5.90174">
        <ele>781.86</ele>
        <time>2019-11-12T12:22:40Z</time>
      </trkpt>
      <trkpt lat="46.64054" lon="5.90168">
        <ele>782.19</ele>
        <time>2019-11-12T12:22:44Z</time>
      </trkpt>
      <trkpt lat="46.64047" lon="5.90148">
        <ele>783.47</ele>
        <time>2019-11-12T12:22:59Z</time>
      </trkpt>
      <trkpt lat="46.64041" lon="5.90127">
        <ele>783.4</ele>
        <time>2019-11-12T12:23:15Z</time>
      </trkpt>
      <trkpt lat="46.64037" lon="5.90119">
        <ele>783.67</ele>
        <time>2019-11-12T12:23:22Z</time>
      </trkpt>
      <trkpt lat="46.64026" lon="5.901">
        <ele>784.47</ele>
        <time>2019-11-12T12:23:38Z</time>
      </trkpt>
      <trkpt lat="46.64017" lon="5.90088">
        <ele>780.81</ele>
        <time>2019-11-12T12:23:49Z</time>
      </trkpt>
      <trkpt lat="46.64016" lon="5.90087">
        <ele>780.82</ele>
        <time>2019-11-12T12:23:50Z</time>
      </trkpt>
      <trkpt lat="46.64014" lon="5.90087">
        <ele>784.53</ele>
        <time>2019-11-12T12:23:55Z</time>
      </trkpt>
      <trkpt lat="46.64014" lon="5.90087">
        <ele>784.43</ele>
        <time>2019-11-12T12:23:56Z</time>
      </trkpt>
      <trkpt lat="46.64005" lon="5.90081">
        <ele>784.54</ele>
        <time>2019-11-12T12:24:10Z</time>
      </trkpt>
      <trkpt lat="46.63996" lon="5.90075">
        <ele>786.57</ele>
        <time>2019-11-12T12:24:22Z</time>
      </trkpt>
      <trkpt lat="46.63987" lon="5.90065">
        <ele>786.95</ele>
        <time>2019-11-12T12:24:36Z</time>
      </trkpt>
      <trkpt lat="46.6398" lon="5.90058">
        <ele>787.33</ele>
        <time>2019-11-12T12:24:53Z</time>
      </trkpt>
      <trkpt lat="46.63978" lon="5.90057">
        <ele>787.87</ele>
        <time>2019-11-12T12:24:55Z</time>
      </trkpt>
      <trkpt lat="46.63976" lon="5.90055">
        <ele>787.95</ele>
        <time>2019-11-12T12:24:57Z</time>
      </trkpt>
      <trkpt lat="46.63973" lon="5.90053">
        <ele>787.93</ele>
        <time>2019-11-12T12:25:00Z</time>
      </trkpt>
      <trkpt lat="46.63958" lon="5.90044">
        <ele>789.05</ele>
        <time>2019-11-12T12:25:17Z</time>
      </trkpt>
      <trkpt lat="46.63944" lon="5.90032">
        <ele>789.14</ele>
        <time>2019-11-12T12:25:31Z</time>
      </trkpt>
      <trkpt lat="46.63943" lon="5.90031">
        <ele>789.11</ele>
        <time>2019-11-12T12:25:33Z</time>
      </trkpt>
      <trkpt lat="46.63938" lon="5.90027">
        <ele>789.26</ele>
        <time>2019-11-12T12:25:38Z</time>
      </trkpt>
      <trkpt lat="46.63929" lon="5.90026">
        <ele>788.96</ele>
        <time>2019-11-12T12:25:51Z</time>
      </trkpt>
      <trkpt lat="46.63915" lon="5.90021">
        <ele>787.93</ele>
        <time>2019-11-12T12:26:04Z</time>
      </trkpt>
      <trkpt lat="46.63894" lon="5.9002">
        <ele>786.91</ele>
        <time>2019-11-12T12:26:22Z</time>
      </trkpt>
      <trkpt lat="46.63876" lon="5.9001">
        <ele>785.51</ele>
        <time>2019-11-12T12:26:40Z</time>
      </trkpt>
      <trkpt lat="46.63864" lon="5.90005">
        <ele>785.65</ele>
        <time>2019-11-12T12:26:53Z</time>
      </trkpt>
      <trkpt lat="46.63853" lon="5.89999">
        <ele>785</ele>
        <time>2019-11-12T12:27:04Z</time>
      </trkpt>
      <trkpt lat="46.6384" lon="5.89992">
        <ele>784.42</ele>
        <time>2019-11-12T12:27:18Z</time>
      </trkpt>
      <trkpt lat="46.63838" lon="5.89991">
        <ele>784.25</ele>
        <time>2019-11-12T12:27:20Z</time>
      </trkpt>
      <trkpt lat="46.63824" lon="5.89982">
        <ele>783.57</ele>
        <time>2019-11-12T12:27:36Z</time>
      </trkpt>
      <trkpt lat="46.63803" lon="5.89977">
        <ele>783.07</ele>
        <time>2019-11-12T12:27:53Z</time>
      </trkpt>
      <trkpt lat="46.63798" lon="5.89975">
        <ele>783.44</ele>
        <time>2019-11-12T12:27:58Z</time>
      </trkpt>
      <trkpt lat="46.63775" lon="5.89967">
        <ele>781.77</ele>
        <time>2019-11-12T12:28:16Z</time>
      </trkpt>
      <trkpt lat="46.63759" lon="5.89963">
        <ele>780.26</ele>
        <time>2019-11-12T12:28:30Z</time>
      </trkpt>
      <trkpt lat="46.6375" lon="5.89954">
        <ele>778.55</ele>
        <time>2019-11-12T12:28:45Z</time>
      </trkpt>
      <trkpt lat="46.6375" lon="5.89953">
        <ele>778.55</ele>
        <time>2019-11-12T12:28:46Z</time>
      </trkpt>
      <trkpt lat="46.63749" lon="5.89954">
        <ele>780.33</ele>
        <time>2019-11-12T12:28:52Z</time>
      </trkpt>
      <trkpt lat="46.6375" lon="5.89955">
        <ele>779.83</ele>
        <time>2019-11-12T12:29:09Z</time>
      </trkpt>
      <trkpt lat="46.63751" lon="5.89956">
        <ele>780.09</ele>
        <time>2019-11-12T12:29:25Z</time>
      </trkpt>
      <trkpt lat="46.63751" lon="5.89955">
        <ele>779.61</ele>
        <time>2019-11-12T12:29:27Z</time>
      </trkpt>
      <trkpt lat="46.63752" lon="5.89948">
        <ele>779.34</ele>
        <time>2019-11-12T12:29:31Z</time>
      </trkpt>
      <trkpt lat="46.63758" lon="5.8993">
        <ele>778.85</ele>
        <time>2019-11-12T12:29:48Z</time>
      </trkpt>
      <trkpt lat="46.63759" lon="5.89918">
        <ele>777.93</ele>
        <time>2019-11-12T12:30:03Z</time>
      </trkpt>
      <trkpt lat="46.6376" lon="5.89906">
        <ele>778.3</ele>
        <time>2019-11-12T12:30:11Z</time>
      </trkpt>
      <trkpt lat="46.63764" lon="5.89873">
        <ele>778.8</ele>
        <time>2019-11-12T12:30:30Z</time>
      </trkpt>
      <trkpt lat="46.63765" lon="5.89859">
        <ele>779.63</ele>
        <time>2019-11-12T12:30:41Z</time>
      </trkpt>
      <trkpt lat="46.63766" lon="5.89836">
        <ele>781.16</ele>
        <time>2019-11-12T12:30:56Z</time>
      </trkpt>
      <trkpt lat="46.63766" lon="5.89829">
        <ele>781.07</ele>
        <time>2019-11-12T12:31:01Z</time>
      </trkpt>
      <trkpt lat="46.63766" lon="5.89825">
        <ele>781.87</ele>
        <time>2019-11-12T12:31:04Z</time>
      </trkpt>
      <trkpt lat="46.63766" lon="5.89821">
        <ele>781.92</ele>
        <time>2019-11-12T12:31:06Z</time>
      </trkpt>
      <trkpt lat="46.63762" lon="5.89805">
        <ele>781.9</ele>
        <time>2019-11-12T12:31:18Z</time>
      </trkpt>
      <trkpt lat="46.63754" lon="5.89795">
        <ele>781.59</ele>
        <time>2019-11-12T12:31:27Z</time>
      </trkpt>
      <trkpt lat="46.63739" lon="5.8979">
        <ele>779.32</ele>
        <time>2019-11-12T12:31:43Z</time>
      </trkpt>
      <trkpt lat="46.63727" lon="5.89785">
        <ele>779.08</ele>
        <time>2019-11-12T12:31:56Z</time>
      </trkpt>
      <trkpt lat="46.63721" lon="5.89776">
        <ele>779.21</ele>
        <time>2019-11-12T12:32:03Z</time>
      </trkpt>
      <trkpt lat="46.6371" lon="5.89757">
        <ele>778.99</ele>
        <time>2019-11-12T12:32:19Z</time>
      </trkpt>
      <trkpt lat="46.63702" lon="5.89743">
        <ele>780.17</ele>
        <time>2019-11-12T12:32:34Z</time>
      </trkpt>
      <trkpt lat="46.63701" lon="5.89743">
        <ele>780.25</ele>
        <time>2019-11-12T12:32:35Z</time>
      </trkpt>
      <trkpt lat="46.6369" lon="5.89737">
        <ele>781.2</ele>
        <time>2019-11-12T12:32:48Z</time>
      </trkpt>
      <trkpt lat="46.63678" lon="5.89731">
        <ele>781.29</ele>
        <time>2019-11-12T12:33:04Z</time>
      </trkpt>
      <trkpt lat="46.6367" lon="5.89727">
        <ele>781.71</ele>
        <time>2019-11-12T12:33:12Z</time>
      </trkpt>
      <trkpt lat="46.63665" lon="5.89723">
        <ele>781.81</ele>
        <time>2019-11-12T12:33:17Z</time>
      </trkpt>
      <trkpt lat="46.63649" lon="5.8971">
        <ele>781.48</ele>
        <time>2019-11-12T12:33:34Z</time>
      </trkpt>
      <trkpt lat="46.63632" lon="5.89704">
        <ele>781.93</ele>
        <time>2019-11-12T12:33:49Z</time>
      </trkpt>
      <trkpt lat="46.63623" lon="5.89705">
        <ele>780.28</ele>
        <time>2019-11-12T12:34:00Z</time>
      </trkpt>
      <trkpt lat="46.63608" lon="5.89704">
        <ele>779.85</ele>
        <time>2019-11-12T12:34:15Z</time>
      </trkpt>
      <trkpt lat="46.6359" lon="5.89705">
        <ele>778.14</ele>
        <time>2019-11-12T12:34:31Z</time>
      </trkpt>
      <trkpt lat="46.63569" lon="5.89701">
        <ele>777.62</ele>
        <time>2019-11-12T12:34:48Z</time>
      </trkpt>
      <trkpt lat="46.6355" lon="5.89701">
        <ele>775.33</ele>
        <time>2019-11-12T12:35:06Z</time>
      </trkpt>
      <trkpt lat="46.63526" lon="5.89703">
        <ele>774.64</ele>
        <time>2019-11-12T12:35:25Z</time>
      </trkpt>
      <trkpt lat="46.63501" lon="5.89709">
        <ele>772.52</ele>
        <time>2019-11-12T12:35:46Z</time>
      </trkpt>
      <trkpt lat="46.63484" lon="5.89716">
        <ele>771.13</ele>
        <time>2019-11-12T12:36:01Z</time>
      </trkpt>
      <trkpt lat="46.63463" lon="5.89721">
        <ele>769.39</ele>
        <time>2019-11-12T12:36:19Z</time>
      </trkpt>
      <trkpt lat="46.63456" lon="5.89722">
        <ele>769.83</ele>
        <time>2019-11-12T12:36:25Z</time>
      </trkpt>
      <trkpt lat="46.63444" lon="5.89709">
        <ele>768.99</ele>
        <time>2019-11-12T12:36:39Z</time>
      </trkpt>
      <trkpt lat="46.63432" lon="5.89687">
        <ele>768.57</ele>
        <time>2019-11-12T12:36:55Z</time>
      </trkpt>
      <trkpt lat="46.63425" lon="5.89673">
        <ele>768.78</ele>
        <time>2019-11-12T12:37:04Z</time>
      </trkpt>
      <trkpt lat="46.63418" lon="5.89661">
        <ele>768.62</ele>
        <time>2019-11-12T12:37:14Z</time>
      </trkpt>
      <trkpt lat="46.63409" lon="5.89635">
        <ele>767.17</ele>
        <time>2019-11-12T12:37:33Z</time>
      </trkpt>
      <trkpt lat="46.63408" lon="5.89632">
        <ele>765.98</ele>
        <time>2019-11-12T12:37:35Z</time>
      </trkpt>
      <trkpt lat="46.63404" lon="5.8961">
        <ele>765.58</ele>
        <time>2019-11-12T12:37:51Z</time>
      </trkpt>
      <trkpt lat="46.63402" lon="5.89584">
        <ele>764.72</ele>
        <time>2019-11-12T12:38:07Z</time>
      </trkpt>
      <trkpt lat="46.63404" lon="5.89548">
        <ele>764.13</ele>
        <time>2019-11-12T12:38:26Z</time>
      </trkpt>
      <trkpt lat="46.63406" lon="5.89521">
        <ele>762.8</ele>
        <time>2019-11-12T12:38:41Z</time>
      </trkpt>
      <trkpt lat="46.63408" lon="5.89489">
        <ele>761.53</ele>
        <time>2019-11-12T12:38:59Z</time>
      </trkpt>
      <trkpt lat="46.634" lon="5.89459">
        <ele>760.51</ele>
        <time>2019-11-12T12:39:20Z</time>
      </trkpt>
      <trkpt lat="46.634" lon="5.89458">
        <ele>760.22</ele>
        <time>2019-11-12T12:39:21Z</time>
      </trkpt>
      <trkpt lat="46.63392" lon="5.89434">
        <ele>759.73</ele>
        <time>2019-11-12T12:39:37Z</time>
      </trkpt>
      <trkpt lat="46.63386" lon="5.89419">
        <ele>759.57</ele>
        <time>2019-11-12T12:39:49Z</time>
      </trkpt>
      <trkpt lat="46.63379" lon="5.89397">
        <ele>760.37</ele>
        <time>2019-11-12T12:40:04Z</time>
      </trkpt>
      <trkpt lat="46.63371" lon="5.89378">
        <ele>760.43</ele>
        <time>2019-11-12T12:40:18Z</time>
      </trkpt>
      <trkpt lat="46.63363" lon="5.89351">
        <ele>760.64</ele>
        <time>2019-11-12T12:40:32Z</time>
      </trkpt>
      <trkpt lat="46.63357" lon="5.89333">
        <ele>760.39</ele>
        <time>2019-11-12T12:40:44Z</time>
      </trkpt>
      <trkpt lat="46.63339" lon="5.89318">
        <ele>761.12</ele>
        <time>2019-11-12T12:41:02Z</time>
      </trkpt>
      <trkpt lat="46.63323" lon="5.89315">
        <ele>761.11</ele>
        <time>2019-11-12T12:41:17Z</time>
      </trkpt>
      <trkpt lat="46.63313" lon="5.89311">
        <ele>762.44</ele>
        <time>2019-11-12T12:41:25Z</time>
      </trkpt>
      <trkpt lat="46.63297" lon="5.89297">
        <ele>761.98</ele>
        <time>2019-11-12T12:41:42Z</time>
      </trkpt>
      <trkpt lat="46.63282" lon="5.89277">
        <ele>762.27</ele>
        <time>2019-11-12T12:41:59Z</time>
      </trkpt>
      <trkpt lat="46.63281" lon="5.89276">
        <ele>762.63</ele>
        <time>2019-11-12T12:42:00Z</time>
      </trkpt>
      <trkpt lat="46.63275" lon="5.89268">
        <ele>763.94</ele>
        <time>2019-11-12T12:42:08Z</time>
      </trkpt>
      <trkpt lat="46.63263" lon="5.89247">
        <ele>763.93</ele>
        <time>2019-11-12T12:42:24Z</time>
      </trkpt>
      <trkpt lat="46.63261" lon="5.8924">
        <ele>765.13</ele>
        <time>2019-11-12T12:42:29Z</time>
      </trkpt>
      <trkpt lat="46.63257" lon="5.89213">
        <ele>764.69</ele>
        <time>2019-11-12T12:42:47Z</time>
      </trkpt>
      <trkpt lat="46.63255" lon="5.89189">
        <ele>764.9</ele>
        <time>2019-11-12T12:43:01Z</time>
      </trkpt>
      <trkpt lat="46.63253" lon="5.89175">
        <ele>765.23</ele>
        <time>2019-11-12T12:43:18Z</time>
      </trkpt>
      <trkpt lat="46.63248" lon="5.89173">
        <ele>764.73</ele>
        <time>2019-11-12T12:43:22Z</time>
      </trkpt>
      <trkpt lat="46.63228" lon="5.8916">
        <ele>765.21</ele>
        <time>2019-11-12T12:43:42Z</time>
      </trkpt>
      <trkpt lat="46.63225" lon="5.89159">
        <ele>764.73</ele>
        <time>2019-11-12T12:43:45Z</time>
      </trkpt>
      <trkpt lat="46.6321" lon="5.89146">
        <ele>765.18</ele>
        <time>2019-11-12T12:44:01Z</time>
      </trkpt>
      <trkpt lat="46.63194" lon="5.89126">
        <ele>764.71</ele>
        <time>2019-11-12T12:44:20Z</time>
      </trkpt>
      <trkpt lat="46.63184" lon="5.8911">
        <ele>765.12</ele>
        <time>2019-11-12T12:44:35Z</time>
      </trkpt>
      <trkpt lat="46.63173" lon="5.8909">
        <ele>765.73</ele>
        <time>2019-11-12T12:44:52Z</time>
      </trkpt>
      <trkpt lat="46.63163" lon="5.89071">
        <ele>767.04</ele>
        <time>2019-11-12T12:45:09Z</time>
      </trkpt>
      <trkpt lat="46.63154" lon="5.89052">
        <ele>767.88</ele>
        <time>2019-11-12T12:45:25Z</time>
      </trkpt>
      <trkpt lat="46.63141" lon="5.8903">
        <ele>767.74</ele>
        <time>2019-11-12T12:45:44Z</time>
      </trkpt>
      <trkpt lat="46.63131" lon="5.89005">
        <ele>768.97</ele>
        <time>2019-11-12T12:46:03Z</time>
      </trkpt>
      <trkpt lat="46.63122" lon="5.88985">
        <ele>770.03</ele>
        <time>2019-11-12T12:46:19Z</time>
      </trkpt>
      <trkpt lat="46.6312" lon="5.88983">
        <ele>769.2</ele>
        <time>2019-11-12T12:46:21Z</time>
      </trkpt>
      <trkpt lat="46.63106" lon="5.88971">
        <ele>769.19</ele>
        <time>2019-11-12T12:46:37Z</time>
      </trkpt>
      <trkpt lat="46.63096" lon="5.88959">
        <ele>769.73</ele>
        <time>2019-11-12T12:46:51Z</time>
      </trkpt>
      <trkpt lat="46.63084" lon="5.88945">
        <ele>769.39</ele>
        <time>2019-11-12T12:47:06Z</time>
      </trkpt>
      <trkpt lat="46.63069" lon="5.88924">
        <ele>770.33</ele>
        <time>2019-11-12T12:47:26Z</time>
      </trkpt>
      <trkpt lat="46.63056" lon="5.88906">
        <ele>771.04</ele>
        <time>2019-11-12T12:47:45Z</time>
      </trkpt>
      <trkpt lat="46.63046" lon="5.88884">
        <ele>771.49</ele>
        <time>2019-11-12T12:48:06Z</time>
      </trkpt>
      <trkpt lat="46.63031" lon="5.88869">
        <ele>772.22</ele>
        <time>2019-11-12T12:48:24Z</time>
      </trkpt>
      <trkpt lat="46.63017" lon="5.88851">
        <ele>772.52</ele>
        <time>2019-11-12T12:48:44Z</time>
      </trkpt>
      <trkpt lat="46.63003" lon="5.8884">
        <ele>772.15</ele>
        <time>2019-11-12T12:49:02Z</time>
      </trkpt>
      <trkpt lat="46.62989" lon="5.88819">
        <ele>772.71</ele>
        <time>2019-11-12T12:49:23Z</time>
      </trkpt>
      <trkpt lat="46.62978" lon="5.88815">
        <ele>773.75</ele>
        <time>2019-11-12T12:49:40Z</time>
      </trkpt>
      <trkpt lat="46.62972" lon="5.88808">
        <ele>773.13</ele>
        <time>2019-11-12T12:49:56Z</time>
      </trkpt>
      <trkpt lat="46.62957" lon="5.8879">
        <ele>774.63</ele>
        <time>2019-11-12T12:50:16Z</time>
      </trkpt>
      <trkpt lat="46.62943" lon="5.88775">
        <ele>775.23</ele>
        <time>2019-11-12T12:50:35Z</time>
      </trkpt>
      <trkpt lat="46.62932" lon="5.88761">
        <ele>776.21</ele>
        <time>2019-11-12T12:50:51Z</time>
      </trkpt>
      <trkpt lat="46.62917" lon="5.8875">
        <ele>775.99</ele>
        <time>2019-11-12T12:51:11Z</time>
      </trkpt>
      <trkpt lat="46.62906" lon="5.88737">
        <ele>776.52</ele>
        <time>2019-11-12T12:51:30Z</time>
      </trkpt>
      <trkpt lat="46.62892" lon="5.88727">
        <ele>776.47</ele>
        <time>2019-11-12T12:51:48Z</time>
      </trkpt>
      <trkpt lat="46.62885" lon="5.88714">
        <ele>777.64</ele>
        <time>2019-11-12T12:52:04Z</time>
      </trkpt>
      <trkpt lat="46.62885" lon="5.88708">
        <ele>778.04</ele>
        <time>2019-11-12T12:52:27Z</time>
      </trkpt>
      <trkpt lat="46.62881" lon="5.88705">
        <ele>777.85</ele>
        <time>2019-11-12T12:52:55Z</time>
      </trkpt>
      <trkpt lat="46.62884" lon="5.88706">
        <ele>777.29</ele>
        <time>2019-11-12T12:53:19Z</time>
      </trkpt>
      <trkpt lat="46.62883" lon="5.88709">
        <ele>776.97</ele>
        <time>2019-11-12T12:53:42Z</time>
      </trkpt>
      <trkpt lat="46.6287" lon="5.887">
        <ele>776.98</ele>
        <time>2019-11-12T12:54:00Z</time>
      </trkpt>
      <trkpt lat="46.62854" lon="5.88682">
        <ele>777.61</ele>
        <time>2019-11-12T12:54:18Z</time>
      </trkpt>
      <trkpt lat="46.62853" lon="5.8868">
        <ele>777.78</ele>
        <time>2019-11-12T12:54:19Z</time>
      </trkpt>
      <trkpt lat="46.62849" lon="5.88675">
        <ele>778.38</ele>
        <time>2019-11-12T12:54:23Z</time>
      </trkpt>
      <trkpt lat="46.62834" lon="5.88663">
        <ele>778.75</ele>
        <time>2019-11-12T12:54:38Z</time>
      </trkpt>
      <trkpt lat="46.62829" lon="5.88658">
        <ele>779.27</ele>
        <time>2019-11-12T12:55:03Z</time>
      </trkpt>
      <trkpt lat="46.62825" lon="5.88663">
        <ele>778.95</ele>
        <time>2019-11-12T12:55:26Z</time>
      </trkpt>
      <trkpt lat="46.62821" lon="5.88667">
        <ele>778.81</ele>
        <time>2019-11-12T12:55:55Z</time>
      </trkpt>
      <trkpt lat="46.62821" lon="5.88666">
        <ele>778.83</ele>
        <time>2019-11-12T12:56:17Z</time>
      </trkpt>
      <trkpt lat="46.62822" lon="5.88666">
        <ele>778.83</ele>
        <time>2019-11-12T12:56:37Z</time>
      </trkpt>
      <trkpt lat="46.62821" lon="5.88661">
        <ele>778.2</ele>
        <time>2019-11-12T12:56:58Z</time>
      </trkpt>
      <trkpt lat="46.62815" lon="5.88647">
        <ele>779.19</ele>
        <time>2019-11-12T12:57:14Z</time>
      </trkpt>
      <trkpt lat="46.62818" lon="5.88633">
        <ele>779.79</ele>
        <time>2019-11-12T12:57:31Z</time>
      </trkpt>
      <trkpt lat="46.62811" lon="5.88621">
        <ele>779.88</ele>
        <time>2019-11-12T12:57:47Z</time>
      </trkpt>
      <trkpt lat="46.62797" lon="5.88614">
        <ele>779.54</ele>
        <time>2019-11-12T12:58:06Z</time>
      </trkpt>
      <trkpt lat="46.62785" lon="5.88613">
        <ele>778.51</ele>
        <time>2019-11-12T12:58:22Z</time>
      </trkpt>
      <trkpt lat="46.62773" lon="5.88601">
        <ele>779.48</ele>
        <time>2019-11-12T12:58:37Z</time>
      </trkpt>
      <trkpt lat="46.62761" lon="5.88586">
        <ele>779.93</ele>
        <time>2019-11-12T12:58:52Z</time>
      </trkpt>
      <trkpt lat="46.62752" lon="5.88576">
        <ele>779.79</ele>
        <time>2019-11-12T12:59:09Z</time>
      </trkpt>
      <trkpt lat="46.62734" lon="5.8856">
        <ele>780.31</ele>
        <time>2019-11-12T12:59:30Z</time>
      </trkpt>
      <trkpt lat="46.62719" lon="5.88548">
        <ele>779.5</ele>
        <time>2019-11-12T12:59:47Z</time>
      </trkpt>
      <trkpt lat="46.62705" lon="5.8853">
        <ele>780.47</ele>
        <time>2019-11-12T13:00:06Z</time>
      </trkpt>
      <trkpt lat="46.62689" lon="5.88516">
        <ele>780.52</ele>
        <time>2019-11-12T13:00:24Z</time>
      </trkpt>
      <trkpt lat="46.62687" lon="5.88512">
        <ele>780.37</ele>
        <time>2019-11-12T13:00:27Z</time>
      </trkpt>
      <trkpt lat="46.62671" lon="5.88491">
        <ele>780.11</ele>
        <time>2019-11-12T13:00:45Z</time>
      </trkpt>
      <trkpt lat="46.62658" lon="5.88474">
        <ele>780.07</ele>
        <time>2019-11-12T13:01:01Z</time>
      </trkpt>
      <trkpt lat="46.62653" lon="5.88467">
        <ele>779.87</ele>
        <time>2019-11-12T13:01:06Z</time>
      </trkpt>
      <trkpt lat="46.62642" lon="5.88453">
        <ele>779.74</ele>
        <time>2019-11-12T13:01:19Z</time>
      </trkpt>
      <trkpt lat="46.62626" lon="5.88437">
        <ele>779.51</ele>
        <time>2019-11-12T13:01:37Z</time>
      </trkpt>
      <trkpt lat="46.62622" lon="5.88434">
        <ele>780.66</ele>
        <time>2019-11-12T13:01:42Z</time>
      </trkpt>
      <trkpt lat="46.62619" lon="5.88432">
        <ele>780.21</ele>
        <time>2019-11-12T13:01:46Z</time>
      </trkpt>
      <trkpt lat="46.62615" lon="5.8843">
        <ele>780.29</ele>
        <time>2019-11-12T13:01:50Z</time>
      </trkpt>
      <trkpt lat="46.6261" lon="5.88427">
        <ele>780.53</ele>
        <time>2019-11-12T13:01:55Z</time>
      </trkpt>
      <trkpt lat="46.62602" lon="5.88414">
        <ele>780.49</ele>
        <time>2019-11-12T13:02:08Z</time>
      </trkpt>
      <trkpt lat="46.62595" lon="5.88395">
        <ele>780.09</ele>
        <time>2019-11-12T13:02:22Z</time>
      </trkpt>
      <trkpt lat="46.62587" lon="5.88384">
        <ele>780.67</ele>
        <time>2019-11-12T13:02:34Z</time>
      </trkpt>
      <trkpt lat="46.62586" lon="5.88383">
        <ele>780.35</ele>
        <time>2019-11-12T13:02:35Z</time>
      </trkpt>
      <trkpt lat="46.62575" lon="5.88369">
        <ele>780.37</ele>
        <time>2019-11-12T13:02:49Z</time>
      </trkpt>
      <trkpt lat="46.62562" lon="5.88357">
        <ele>779.56</ele>
        <time>2019-11-12T13:03:03Z</time>
      </trkpt>
      <trkpt lat="46.62547" lon="5.8835">
        <ele>780.68</ele>
        <time>2019-11-12T13:03:17Z</time>
      </trkpt>
      <trkpt lat="46.6254" lon="5.88344">
        <ele>781.99</ele>
        <time>2019-11-12T13:03:34Z</time>
      </trkpt>
      <trkpt lat="46.62532" lon="5.88333">
        <ele>781.97</ele>
        <time>2019-11-12T13:03:43Z</time>
      </trkpt>
      <trkpt lat="46.6253" lon="5.88329">
        <ele>782.35</ele>
        <time>2019-11-12T13:03:46Z</time>
      </trkpt>
      <trkpt lat="46.62525" lon="5.88322">
        <ele>781.86</ele>
        <time>2019-11-12T13:03:52Z</time>
      </trkpt>
      <trkpt lat="46.62517" lon="5.88315">
        <ele>782.84</ele>
        <time>2019-11-12T13:04:06Z</time>
      </trkpt>
      <trkpt lat="46.6251" lon="5.88309">
        <ele>783.7</ele>
        <time>2019-11-12T13:04:15Z</time>
      </trkpt>
      <trkpt lat="46.625" lon="5.88298">
        <ele>784.64</ele>
        <time>2019-11-12T13:04:29Z</time>
      </trkpt>
      <trkpt lat="46.6249" lon="5.88285">
        <ele>784.58</ele>
        <time>2019-11-12T13:04:45Z</time>
      </trkpt>
      <trkpt lat="46.62488" lon="5.88283">
        <ele>784.52</ele>
        <time>2019-11-12T13:04:48Z</time>
      </trkpt>
      <trkpt lat="46.62474" lon="5.8827">
        <ele>784.64</ele>
        <time>2019-11-12T13:05:02Z</time>
      </trkpt>
      <trkpt lat="46.62464" lon="5.88253">
        <ele>786.02</ele>
        <time>2019-11-12T13:05:18Z</time>
      </trkpt>
      <trkpt lat="46.62452" lon="5.88239">
        <ele>787.05</ele>
        <time>2019-11-12T13:05:33Z</time>
      </trkpt>
      <trkpt lat="46.6244" lon="5.88217">
        <ele>787.05</ele>
        <time>2019-11-12T13:05:50Z</time>
      </trkpt>
      <trkpt lat="46.62424" lon="5.882">
        <ele>788.31</ele>
        <time>2019-11-12T13:06:09Z</time>
      </trkpt>
      <trkpt lat="46.62409" lon="5.88189">
        <ele>787.95</ele>
        <time>2019-11-12T13:06:25Z</time>
      </trkpt>
      <trkpt lat="46.62392" lon="5.88173">
        <ele>787.79</ele>
        <time>2019-11-12T13:06:43Z</time>
      </trkpt>
      <trkpt lat="46.62378" lon="5.88166">
        <ele>787.69</ele>
        <time>2019-11-12T13:06:56Z</time>
      </trkpt>
      <trkpt lat="46.62356" lon="5.88159">
        <ele>787.71</ele>
        <time>2019-11-12T13:07:16Z</time>
      </trkpt>
      <trkpt lat="46.62341" lon="5.88157">
        <ele>787.19</ele>
        <time>2019-11-12T13:07:28Z</time>
      </trkpt>
      <trkpt lat="46.62325" lon="5.88156">
        <ele>786.31</ele>
        <time>2019-11-12T13:07:42Z</time>
      </trkpt>
      <trkpt lat="46.62321" lon="5.88152">
        <ele>785.87</ele>
        <time>2019-11-12T13:08:01Z</time>
      </trkpt>
      <trkpt lat="46.62305" lon="5.88148">
        <ele>784.23</ele>
        <time>2019-11-12T13:08:18Z</time>
      </trkpt>
      <trkpt lat="46.62302" lon="5.88143">
        <ele>785.03</ele>
        <time>2019-11-12T13:08:37Z</time>
      </trkpt>
      <trkpt lat="46.62298" lon="5.88142">
        <ele>784.45</ele>
        <time>2019-11-12T13:09:00Z</time>
      </trkpt>
      <trkpt lat="46.62297" lon="5.88142">
        <ele>784.91</ele>
        <time>2019-11-12T13:09:23Z</time>
      </trkpt>
      <trkpt lat="46.62287" lon="5.88148">
        <ele>783.21</ele>
        <time>2019-11-12T13:09:44Z</time>
      </trkpt>
      <trkpt lat="46.62282" lon="5.8815">
        <ele>783.16</ele>
        <time>2019-11-12T13:09:49Z</time>
      </trkpt>
      <trkpt lat="46.62265" lon="5.88154">
        <ele>781.55</ele>
        <time>2019-11-12T13:10:05Z</time>
      </trkpt>
      <trkpt lat="46.62259" lon="5.88155">
        <ele>781.66</ele>
        <time>2019-11-12T13:10:10Z</time>
      </trkpt>
      <trkpt lat="46.62249" lon="5.88158">
        <ele>780.73</ele>
        <time>2019-11-12T13:10:20Z</time>
      </trkpt>
      <trkpt lat="46.62232" lon="5.88161">
        <ele>779.76</ele>
        <time>2019-11-12T13:10:36Z</time>
      </trkpt>
      <trkpt lat="46.62212" lon="5.88164">
        <ele>777.56</ele>
        <time>2019-11-12T13:10:53Z</time>
      </trkpt>
      <trkpt lat="46.62194" lon="5.88167">
        <ele>776.63</ele>
        <time>2019-11-12T13:11:08Z</time>
      </trkpt>
      <trkpt lat="46.62174" lon="5.88172">
        <ele>774.35</ele>
        <time>2019-11-12T13:11:25Z</time>
      </trkpt>
      <trkpt lat="46.62154" lon="5.88175">
        <ele>773.53</ele>
        <time>2019-11-12T13:11:42Z</time>
      </trkpt>
      <trkpt lat="46.62151" lon="5.88175">
        <ele>773.47</ele>
        <time>2019-11-12T13:11:44Z</time>
      </trkpt>
      <trkpt lat="46.62145" lon="5.88178">
        <ele>773.59</ele>
        <time>2019-11-12T13:11:50Z</time>
      </trkpt>
      <trkpt lat="46.62132" lon="5.88175">
        <ele>771.6</ele>
        <time>2019-11-12T13:12:01Z</time>
      </trkpt>
      <trkpt lat="46.62108" lon="5.88167">
        <ele>770.32</ele>
        <time>2019-11-12T13:12:20Z</time>
      </trkpt>
      <trkpt lat="46.62084" lon="5.88166">
        <ele>767.89</ele>
        <time>2019-11-12T13:12:39Z</time>
      </trkpt>
      <trkpt lat="46.62063" lon="5.88164">
        <ele>767.99</ele>
        <time>2019-11-12T13:12:55Z</time>
      </trkpt>
      <trkpt lat="46.62045" lon="5.88158">
        <ele>766.19</ele>
        <time>2019-11-12T13:13:11Z</time>
      </trkpt>
      <trkpt lat="46.62042" lon="5.88157">
        <ele>764.8</ele>
        <time>2019-11-12T13:13:14Z</time>
      </trkpt>
      <trkpt lat="46.6202" lon="5.88148">
        <ele>763.67</ele>
        <time>2019-11-12T13:13:31Z</time>
      </trkpt>
      <trkpt lat="46.61997" lon="5.88141">
        <ele>764.16</ele>
        <time>2019-11-12T13:13:51Z</time>
      </trkpt>
      <trkpt lat="46.6199" lon="5.88135">
        <ele>763.08</ele>
        <time>2019-11-12T13:13:58Z</time>
      </trkpt>
      <trkpt lat="46.61972" lon="5.8813">
        <ele>762.53</ele>
        <time>2019-11-12T13:14:14Z</time>
      </trkpt>
      <trkpt lat="46.61964" lon="5.88127">
        <ele>762.45</ele>
        <time>2019-11-12T13:14:27Z</time>
      </trkpt>
      <trkpt lat="46.6194" lon="5.88117">
        <ele>761.25</ele>
        <time>2019-11-12T13:14:49Z</time>
      </trkpt>
      <trkpt lat="46.61924" lon="5.88119">
        <ele>760.47</ele>
        <time>2019-11-12T13:15:04Z</time>
      </trkpt>
      <trkpt lat="46.61918" lon="5.8812">
        <ele>760.52</ele>
        <time>2019-11-12T13:15:09Z</time>
      </trkpt>
      <trkpt lat="46.61902" lon="5.88118">
        <ele>760.34</ele>
        <time>2019-11-12T13:15:24Z</time>
      </trkpt>
      <trkpt lat="46.6188" lon="5.88112">
        <ele>759.45</ele>
        <time>2019-11-12T13:15:43Z</time>
      </trkpt>
      <trkpt lat="46.61874" lon="5.88112">
        <ele>759.24</ele>
        <time>2019-11-12T13:15:49Z</time>
      </trkpt>
      <trkpt lat="46.61865" lon="5.88114">
        <ele>758.82</ele>
        <time>2019-11-12T13:16:05Z</time>
      </trkpt>
      <trkpt lat="46.61853" lon="5.88115">
        <ele>758.33</ele>
        <time>2019-11-12T13:16:23Z</time>
      </trkpt>
      <trkpt lat="46.6183" lon="5.88123">
        <ele>756.71</ele>
        <time>2019-11-12T13:16:43Z</time>
      </trkpt>
      <trkpt lat="46.61825" lon="5.8815">
        <ele>755.64</ele>
        <time>2019-11-12T13:17:01Z</time>
      </trkpt>
      <trkpt lat="46.61825" lon="5.88161">
        <ele>755.52</ele>
        <time>2019-11-12T13:17:15Z</time>
      </trkpt>
      <trkpt lat="46.61825" lon="5.88159">
        <ele>755.98</ele>
        <time>2019-11-12T13:17:33Z</time>
      </trkpt>
      <trkpt lat="46.61825" lon="5.88187">
        <ele>755.16</ele>
        <time>2019-11-12T13:18:04Z</time>
      </trkpt>
      <trkpt lat="46.61824" lon="5.88197">
        <ele>755.89</ele>
        <time>2019-11-12T13:20:47Z</time>
      </trkpt>
      <trkpt lat="46.61816" lon="5.88205">
        <ele>755.84</ele>
        <time>2019-11-12T13:20:56Z</time>
      </trkpt>
      <trkpt lat="46.61808" lon="5.88212">
        <ele>756.24</ele>
        <time>2019-11-12T13:21:06Z</time>
      </trkpt>
      <trkpt lat="46.61805" lon="5.88215">
        <ele>756.09</ele>
        <time>2019-11-12T13:21:52Z</time>
      </trkpt>
      <trkpt lat="46.61809" lon="5.88213">
        <ele>755.94</ele>
        <time>2019-11-12T13:21:58Z</time>
      </trkpt>
      <trkpt lat="46.61822" lon="5.88203">
        <ele>756.25</ele>
        <time>2019-11-12T13:22:14Z</time>
      </trkpt>
      <trkpt lat="46.61825" lon="5.88199">
        <ele>755.96</ele>
        <time>2019-11-12T13:22:27Z</time>
      </trkpt>
      <trkpt lat="46.61829" lon="5.88183">
        <ele>755.98</ele>
        <time>2019-11-12T13:22:42Z</time>
      </trkpt>
      <trkpt lat="46.61829" lon="5.88173">
        <ele>756.9</ele>
        <time>2019-11-12T13:23:19Z</time>
      </trkpt>
      <trkpt lat="46.61827" lon="5.88171">
        <ele>757.26</ele>
        <time>2019-11-12T13:24:49Z</time>
      </trkpt>
      <trkpt lat="46.61825" lon="5.88156">
        <ele>758.19</ele>
        <time>2019-11-12T13:25:02Z</time>
      </trkpt>
      <trkpt lat="46.61825" lon="5.88148">
        <ele>757.67</ele>
        <time>2019-11-12T13:25:08Z</time>
      </trkpt>
      <trkpt lat="46.61835" lon="5.88116">
        <ele>759.92</ele>
        <time>2019-11-12T13:25:30Z</time>
      </trkpt>
      <trkpt lat="46.61848" lon="5.88115">
        <ele>762.07</ele>
        <time>2019-11-12T13:25:45Z</time>
      </trkpt>
      <trkpt lat="46.61857" lon="5.88118">
        <ele>761.84</ele>
        <time>2019-11-12T13:25:54Z</time>
      </trkpt>
      <trkpt lat="46.61863" lon="5.88122">
        <ele>761.98</ele>
        <time>2019-11-12T13:26:00Z</time>
      </trkpt>
      <trkpt lat="46.61866" lon="5.88125">
        <ele>761.91</ele>
        <time>2019-11-12T13:26:03Z</time>
      </trkpt>
      <trkpt lat="46.61881" lon="5.88144">
        <ele>761.85</ele>
        <time>2019-11-12T13:26:19Z</time>
      </trkpt>
      <trkpt lat="46.61888" lon="5.88153">
        <ele>761.53</ele>
        <time>2019-11-12T13:26:33Z</time>
      </trkpt>
      <trkpt lat="46.61897" lon="5.88161">
        <ele>761.23</ele>
        <time>2019-11-12T13:26:47Z</time>
      </trkpt>
      <trkpt lat="46.61903" lon="5.88169">
        <ele>761.27</ele>
        <time>2019-11-12T13:26:54Z</time>
      </trkpt>
      <trkpt lat="46.61907" lon="5.88192">
        <ele>760.38</ele>
        <time>2019-11-12T13:27:10Z</time>
      </trkpt>
      <trkpt lat="46.61907" lon="5.88197">
        <ele>759.57</ele>
        <time>2019-11-12T13:27:16Z</time>
      </trkpt>
      <trkpt lat="46.6191" lon="5.88212">
        <ele>760.69</ele>
        <time>2019-11-12T13:27:31Z</time>
      </trkpt>
      <trkpt lat="46.61907" lon="5.88224">
        <ele>760.17</ele>
        <time>2019-11-12T13:27:44Z</time>
      </trkpt>
      <trkpt lat="46.61904" lon="5.8824">
        <ele>760.79</ele>
        <time>2019-11-12T13:28:00Z</time>
      </trkpt>
      <trkpt lat="46.619" lon="5.88262">
        <ele>761.92</ele>
        <time>2019-11-12T13:28:18Z</time>
      </trkpt>
      <trkpt lat="46.61897" lon="5.88275">
        <ele>763.09</ele>
        <time>2019-11-12T13:28:36Z</time>
      </trkpt>
      <trkpt lat="46.61891" lon="5.88288">
        <ele>763.95</ele>
        <time>2019-11-12T13:28:47Z</time>
      </trkpt>
      <trkpt lat="46.61881" lon="5.88307">
        <ele>766.02</ele>
        <time>2019-11-12T13:29:06Z</time>
      </trkpt>
      <trkpt lat="46.61874" lon="5.88325">
        <ele>767.58</ele>
        <time>2019-11-12T13:29:23Z</time>
      </trkpt>
      <trkpt lat="46.61862" lon="5.88344">
        <ele>770.04</ele>
        <time>2019-11-12T13:29:39Z</time>
      </trkpt>
      <trkpt lat="46.61848" lon="5.8836">
        <ele>771.54</ele>
        <time>2019-11-12T13:29:55Z</time>
      </trkpt>
      <trkpt lat="46.61833" lon="5.88371">
        <ele>774.18</ele>
        <time>2019-11-12T13:30:11Z</time>
      </trkpt>
      <trkpt lat="46.61818" lon="5.88387">
        <ele>775.73</ele>
        <time>2019-11-12T13:30:30Z</time>
      </trkpt>
      <trkpt lat="46.61815" lon="5.88396">
        <ele>775.72</ele>
        <time>2019-11-12T13:30:35Z</time>
      </trkpt>
      <trkpt lat="46.61816" lon="5.88415">
        <ele>774.13</ele>
        <time>2019-11-12T13:30:52Z</time>
      </trkpt>
      <trkpt lat="46.61818" lon="5.88435">
        <ele>772.7</ele>
        <time>2019-11-12T13:31:10Z</time>
      </trkpt>
      <trkpt lat="46.61817" lon="5.88442">
        <ele>771.96</ele>
        <time>2019-11-12T13:31:18Z</time>
      </trkpt>
      <trkpt lat="46.61816" lon="5.88445">
        <ele>773.17</ele>
        <time>2019-11-12T13:31:20Z</time>
      </trkpt>
      <trkpt lat="46.61813" lon="5.8846">
        <ele>772.12</ele>
        <time>2019-11-12T13:31:40Z</time>
      </trkpt>
      <trkpt lat="46.61815" lon="5.88485">
        <ele>771.74</ele>
        <time>2019-11-12T13:31:58Z</time>
      </trkpt>
      <trkpt lat="46.61814" lon="5.88515">
        <ele>771.71</ele>
        <time>2019-11-12T13:32:17Z</time>
      </trkpt>
      <trkpt lat="46.61817" lon="5.88543">
        <ele>770.55</ele>
        <time>2019-11-12T13:32:35Z</time>
      </trkpt>
      <trkpt lat="46.61815" lon="5.88574">
        <ele>767.15</ele>
        <time>2019-11-12T13:32:52Z</time>
      </trkpt>
      <trkpt lat="46.61815" lon="5.88576">
        <ele>767.13</ele>
        <time>2019-11-12T13:32:53Z</time>
      </trkpt>
      <trkpt lat="46.61812" lon="5.88594">
        <ele>769.48</ele>
        <time>2019-11-12T13:33:00Z</time>
      </trkpt>
      <trkpt lat="46.61812" lon="5.886">
        <ele>769.68</ele>
        <time>2019-11-12T13:33:03Z</time>
      </trkpt>
      <trkpt lat="46.61811" lon="5.8862">
        <ele>768.14</ele>
        <time>2019-11-12T13:33:13Z</time>
      </trkpt>
      <trkpt lat="46.61819" lon="5.88639">
        <ele>767.81</ele>
        <time>2019-11-12T13:33:25Z</time>
      </trkpt>
      <trkpt lat="46.61825" lon="5.88642">
        <ele>767.56</ele>
        <time>2019-11-12T13:33:54Z</time>
      </trkpt>
      <trkpt lat="46.61825" lon="5.88643">
        <ele>767</ele>
        <time>2019-11-12T13:33:55Z</time>
      </trkpt>
      <trkpt lat="46.61825" lon="5.88647">
        <ele>767</ele>
        <time>2019-11-12T13:33:57Z</time>
      </trkpt>
      <trkpt lat="46.61826" lon="5.88654">
        <ele>768.04</ele>
        <time>2019-11-12T13:34:02Z</time>
      </trkpt>
      <trkpt lat="46.61829" lon="5.88653">
        <ele>766.47</ele>
        <time>2019-11-12T13:34:16Z</time>
      </trkpt>
      <trkpt lat="46.61829" lon="5.88653">
        <ele>767.35</ele>
        <time>2019-11-12T13:34:45Z</time>
      </trkpt>
      <trkpt lat="46.61829" lon="5.88655">
        <ele>767.17</ele>
        <time>2019-11-12T13:34:57Z</time>
      </trkpt>
      <trkpt lat="46.61831" lon="5.8866">
        <ele>767.56</ele>
        <time>2019-11-12T13:35:06Z</time>
      </trkpt>
      <trkpt lat="46.61832" lon="5.88672">
        <ele>766.97</ele>
        <time>2019-11-12T13:35:15Z</time>
      </trkpt>
      <trkpt lat="46.61834" lon="5.88682">
        <ele>766.44</ele>
        <time>2019-11-12T13:35:22Z</time>
      </trkpt>
      <trkpt lat="46.61841" lon="5.88722">
        <ele>764.51</ele>
        <time>2019-11-12T13:35:43Z</time>
      </trkpt>
      <trkpt lat="46.61838" lon="5.88748">
        <ele>763.38</ele>
        <time>2019-11-12T13:35:57Z</time>
      </trkpt>
      <trkpt lat="46.61841" lon="5.88776">
        <ele>762.41</ele>
        <time>2019-11-12T13:36:13Z</time>
      </trkpt>
      <trkpt lat="46.61844" lon="5.88801">
        <ele>761.26</ele>
        <time>2019-11-12T13:36:29Z</time>
      </trkpt>
      <trkpt lat="46.61841" lon="5.88814">
        <ele>760.88</ele>
        <time>2019-11-12T13:36:46Z</time>
      </trkpt>
      <trkpt lat="46.6184" lon="5.88818">
        <ele>761.23</ele>
        <time>2019-11-12T13:37:04Z</time>
      </trkpt>
      <trkpt lat="46.61837" lon="5.88827">
        <ele>760.89</ele>
        <time>2019-11-12T13:37:20Z</time>
      </trkpt>
      <trkpt lat="46.61836" lon="5.88854">
        <ele>761.06</ele>
        <time>2019-11-12T13:37:38Z</time>
      </trkpt>
      <trkpt lat="46.61834" lon="5.8888">
        <ele>760.82</ele>
        <time>2019-11-12T13:37:53Z</time>
      </trkpt>
      <trkpt lat="46.61832" lon="5.889">
        <ele>761.24</ele>
        <time>2019-11-12T13:38:08Z</time>
      </trkpt>
      <trkpt lat="46.6183" lon="5.88913">
        <ele>761.76</ele>
        <time>2019-11-12T13:38:21Z</time>
      </trkpt>
      <trkpt lat="46.61828" lon="5.88925">
        <ele>761.72</ele>
        <time>2019-11-12T13:38:34Z</time>
      </trkpt>
      <trkpt lat="46.61827" lon="5.8893">
        <ele>762.07</ele>
        <time>2019-11-12T13:38:38Z</time>
      </trkpt>
      <trkpt lat="46.61825" lon="5.88936">
        <ele>761.13</ele>
        <time>2019-11-12T13:38:43Z</time>
      </trkpt>
      <trkpt lat="46.61818" lon="5.88951">
        <ele>761.8</ele>
        <time>2019-11-12T13:38:58Z</time>
      </trkpt>
      <trkpt lat="46.61812" lon="5.88957">
        <ele>759.28</ele>
        <time>2019-11-12T13:39:08Z</time>
      </trkpt>
      <trkpt lat="46.61807" lon="5.88965">
        <ele>761.28</ele>
        <time>2019-11-12T13:39:15Z</time>
      </trkpt>
      <trkpt lat="46.61796" lon="5.88976">
        <ele>761.47</ele>
        <time>2019-11-12T13:39:30Z</time>
      </trkpt>
      <trkpt lat="46.61787" lon="5.88988">
        <ele>762.11</ele>
        <time>2019-11-12T13:39:46Z</time>
      </trkpt>
      <trkpt lat="46.61778" lon="5.88994">
        <ele>761.49</ele>
        <time>2019-11-12T13:40:00Z</time>
      </trkpt>
      <trkpt lat="46.61773" lon="5.88994">
        <ele>761.82</ele>
        <time>2019-11-12T13:40:04Z</time>
      </trkpt>
      <trkpt lat="46.61761" lon="5.88986">
        <ele>761.22</ele>
        <time>2019-11-12T13:40:20Z</time>
      </trkpt>
      <trkpt lat="46.61741" lon="5.88971">
        <ele>761.82</ele>
        <time>2019-11-12T13:40:39Z</time>
      </trkpt>
      <trkpt lat="46.61723" lon="5.88965">
        <ele>761.9</ele>
        <time>2019-11-12T13:40:55Z</time>
      </trkpt>
      <trkpt lat="46.61714" lon="5.88958">
        <ele>762.04</ele>
        <time>2019-11-12T13:41:02Z</time>
      </trkpt>
      <trkpt lat="46.61696" lon="5.88958">
        <ele>761.41</ele>
        <time>2019-11-12T13:41:20Z</time>
      </trkpt>
      <trkpt lat="46.61681" lon="5.88961">
        <ele>760.97</ele>
        <time>2019-11-12T13:41:34Z</time>
      </trkpt>
      <trkpt lat="46.61662" lon="5.88971">
        <ele>761.15</ele>
        <time>2019-11-12T13:41:52Z</time>
      </trkpt>
      <trkpt lat="46.61646" lon="5.88991">
        <ele>760.97</ele>
        <time>2019-11-12T13:42:11Z</time>
      </trkpt>
      <trkpt lat="46.61642" lon="5.89011">
        <ele>761.25</ele>
        <time>2019-11-12T13:42:22Z</time>
      </trkpt>
      <trkpt lat="46.61642" lon="5.8904">
        <ele>760.99</ele>
        <time>2019-11-12T13:42:41Z</time>
      </trkpt>
      <trkpt lat="46.61641" lon="5.89066">
        <ele>761.08</ele>
        <time>2019-11-12T13:42:58Z</time>
      </trkpt>
      <trkpt lat="46.61636" lon="5.89084">
        <ele>761.12</ele>
        <time>2019-11-12T13:43:07Z</time>
      </trkpt>
      <trkpt lat="46.61628" lon="5.89097">
        <ele>761.52</ele>
        <time>2019-11-12T13:43:15Z</time>
      </trkpt>
      <trkpt lat="46.61609" lon="5.89104">
        <ele>762.23</ele>
        <time>2019-11-12T13:43:31Z</time>
      </trkpt>
      <trkpt lat="46.61604" lon="5.89102">
        <ele>763.03</ele>
        <time>2019-11-12T13:43:35Z</time>
      </trkpt>
      <trkpt lat="46.61592" lon="5.89097">
        <ele>763.69</ele>
        <time>2019-11-12T13:43:45Z</time>
      </trkpt>
      <trkpt lat="46.61581" lon="5.89093">
        <ele>764.34</ele>
        <time>2019-11-12T13:43:55Z</time>
      </trkpt>
      <trkpt lat="46.61574" lon="5.89094">
        <ele>763.87</ele>
        <time>2019-11-12T13:44:01Z</time>
      </trkpt>
      <trkpt lat="46.61551" lon="5.89103">
        <ele>764.35</ele>
        <time>2019-11-12T13:44:24Z</time>
      </trkpt>
      <trkpt lat="46.61544" lon="5.89102">
        <ele>763.95</ele>
        <time>2019-11-12T13:44:38Z</time>
      </trkpt>
      <trkpt lat="46.61527" lon="5.89115">
        <ele>764.12</ele>
        <time>2019-11-12T13:44:56Z</time>
      </trkpt>
      <trkpt lat="46.61519" lon="5.89123">
        <ele>763.79</ele>
        <time>2019-11-12T13:45:10Z</time>
      </trkpt>
      <trkpt lat="46.61517" lon="5.89124">
        <ele>763.84</ele>
        <time>2019-11-12T13:45:27Z</time>
      </trkpt>
      <trkpt lat="46.6151" lon="5.89132">
        <ele>764.49</ele>
        <time>2019-11-12T13:45:44Z</time>
      </trkpt>
      <trkpt lat="46.61509" lon="5.89132">
        <ele>764.24</ele>
        <time>2019-11-12T13:45:45Z</time>
      </trkpt>
      <trkpt lat="46.61505" lon="5.89132">
        <ele>764.57</ele>
        <time>2019-11-12T13:45:49Z</time>
      </trkpt>
      <trkpt lat="46.61497" lon="5.89133">
        <ele>765.32</ele>
        <time>2019-11-12T13:46:01Z</time>
      </trkpt>
      <trkpt lat="46.615" lon="5.89139">
        <ele>765.68</ele>
        <time>2019-11-12T13:46:13Z</time>
      </trkpt>
      <trkpt lat="46.6148" lon="5.89139">
        <ele>768.41</ele>
        <time>2019-11-12T13:46:33Z</time>
      </trkpt>
      <trkpt lat="46.61477" lon="5.89141">
        <ele>769.78</ele>
        <time>2019-11-12T13:46:36Z</time>
      </trkpt>
      <trkpt lat="46.61469" lon="5.89145">
        <ele>770.13</ele>
        <time>2019-11-12T13:46:44Z</time>
      </trkpt>
      <trkpt lat="46.61462" lon="5.89148">
        <ele>769.74</ele>
        <time>2019-11-12T13:46:51Z</time>
      </trkpt>
      <trkpt lat="46.61444" lon="5.89151">
        <ele>769.57</ele>
        <time>2019-11-12T13:47:06Z</time>
      </trkpt>
      <trkpt lat="46.61432" lon="5.89155">
        <ele>769.15</ele>
        <time>2019-11-12T13:47:21Z</time>
      </trkpt>
      <trkpt lat="46.61413" lon="5.89163">
        <ele>773.22</ele>
        <time>2019-11-12T13:47:38Z</time>
      </trkpt>
      <trkpt lat="46.6141" lon="5.89163">
        <ele>773.33</ele>
        <time>2019-11-12T13:47:41Z</time>
      </trkpt>
      <trkpt lat="46.61407" lon="5.89167">
        <ele>773.71</ele>
        <time>2019-11-12T13:47:46Z</time>
      </trkpt>
      <trkpt lat="46.61404" lon="5.89171">
        <ele>773.83</ele>
        <time>2019-11-12T13:47:51Z</time>
      </trkpt>
      <trkpt lat="46.61394" lon="5.89186">
        <ele>775.6</ele>
        <time>2019-11-12T13:48:05Z</time>
      </trkpt>
      <trkpt lat="46.61382" lon="5.89196">
        <ele>777.74</ele>
        <time>2019-11-12T13:48:23Z</time>
      </trkpt>
      <trkpt lat="46.61368" lon="5.89209">
        <ele>778.61</ele>
        <time>2019-11-12T13:48:39Z</time>
      </trkpt>
      <trkpt lat="46.61355" lon="5.89222">
        <ele>780.36</ele>
        <time>2019-11-12T13:48:54Z</time>
      </trkpt>
      <trkpt lat="46.61348" lon="5.89232">
        <ele>780.25</ele>
        <time>2019-11-12T13:49:05Z</time>
      </trkpt>
      <trkpt lat="46.61338" lon="5.89249">
        <ele>782.85</ele>
        <time>2019-11-12T13:49:20Z</time>
      </trkpt>
      <trkpt lat="46.61337" lon="5.8925">
        <ele>783.05</ele>
        <time>2019-11-12T13:49:21Z</time>
      </trkpt>
      <trkpt lat="46.6133" lon="5.8926">
        <ele>783.31</ele>
        <time>2019-11-12T13:49:32Z</time>
      </trkpt>
      <trkpt lat="46.61324" lon="5.89277">
        <ele>785.95</ele>
        <time>2019-11-12T13:49:48Z</time>
      </trkpt>
      <trkpt lat="46.61318" lon="5.89297">
        <ele>788.8</ele>
        <time>2019-11-12T13:50:09Z</time>
      </trkpt>
      <trkpt lat="46.61316" lon="5.89323">
        <ele>788.59</ele>
        <time>2019-11-12T13:50:28Z</time>
      </trkpt>
      <trkpt lat="46.61322" lon="5.8934">
        <ele>787.81</ele>
        <time>2019-11-12T13:50:47Z</time>
      </trkpt>
      <trkpt lat="46.61333" lon="5.89353">
        <ele>787</ele>
        <time>2019-11-12T13:51:01Z</time>
      </trkpt>
      <trkpt lat="46.61334" lon="5.8937">
        <ele>786.89</ele>
        <time>2019-11-12T13:51:22Z</time>
      </trkpt>
      <trkpt lat="46.61333" lon="5.89368">
        <ele>787.6</ele>
        <time>2019-11-12T13:51:56Z</time>
      </trkpt>
      <trkpt lat="46.61324" lon="5.89364">
        <ele>786.18</ele>
        <time>2019-11-12T13:52:19Z</time>
      </trkpt>
      <trkpt lat="46.61323" lon="5.89363">
        <ele>786.96</ele>
        <time>2019-11-12T13:52:48Z</time>
      </trkpt>
      <trkpt lat="46.61326" lon="5.89362">
        <ele>787.61</ele>
        <time>2019-11-12T13:53:13Z</time>
      </trkpt>
      <trkpt lat="46.61327" lon="5.89362">
        <ele>787.39</ele>
        <time>2019-11-12T13:53:33Z</time>
      </trkpt>
      <trkpt lat="46.61335" lon="5.89384">
        <ele>788.11</ele>
        <time>2019-11-12T13:53:50Z</time>
      </trkpt>
      <trkpt lat="46.61342" lon="5.89405">
        <ele>789.29</ele>
        <time>2019-11-12T13:54:05Z</time>
      </trkpt>
      <trkpt lat="46.61344" lon="5.89428">
        <ele>790.31</ele>
        <time>2019-11-12T13:54:25Z</time>
      </trkpt>
      <trkpt lat="46.61332" lon="5.89451">
        <ele>792.97</ele>
        <time>2019-11-12T13:54:45Z</time>
      </trkpt>
      <trkpt lat="46.61318" lon="5.89458">
        <ele>794.67</ele>
        <time>2019-11-12T13:55:02Z</time>
      </trkpt>
      <trkpt lat="46.61304" lon="5.89464">
        <ele>797.77</ele>
        <time>2019-11-12T13:55:21Z</time>
      </trkpt>
      <trkpt lat="46.61293" lon="5.89472">
        <ele>798.96</ele>
        <time>2019-11-12T13:55:32Z</time>
      </trkpt>
      <trkpt lat="46.61291" lon="5.89485">
        <ele>801.25</ele>
        <time>2019-11-12T13:55:45Z</time>
      </trkpt>
      <trkpt lat="46.61289" lon="5.89509">
        <ele>802.07</ele>
        <time>2019-11-12T13:55:59Z</time>
      </trkpt>
      <trkpt lat="46.61289" lon="5.89507">
        <ele>801.32</ele>
        <time>2019-11-12T13:56:15Z</time>
      </trkpt>
      <trkpt lat="46.61293" lon="5.89521">
        <ele>801.98</ele>
        <time>2019-11-12T13:56:26Z</time>
      </trkpt>
      <trkpt lat="46.61299" lon="5.89543">
        <ele>803.13</ele>
        <time>2019-11-12T13:56:44Z</time>
      </trkpt>
      <trkpt lat="46.61302" lon="5.89549">
        <ele>802.39</ele>
        <time>2019-11-12T13:56:49Z</time>
      </trkpt>
      <trkpt lat="46.61309" lon="5.89565">
        <ele>802.54</ele>
        <time>2019-11-12T13:57:04Z</time>
      </trkpt>
      <trkpt lat="46.61315" lon="5.89572">
        <ele>801.06</ele>
        <time>2019-11-12T13:57:19Z</time>
      </trkpt>
      <trkpt lat="46.61325" lon="5.89587">
        <ele>800.35</ele>
        <time>2019-11-12T13:57:36Z</time>
      </trkpt>
      <trkpt lat="46.61335" lon="5.89607">
        <ele>798.95</ele>
        <time>2019-11-12T13:57:56Z</time>
      </trkpt>
      <trkpt lat="46.6135" lon="5.89635">
        <ele>798.24</ele>
        <time>2019-11-12T13:58:15Z</time>
      </trkpt>
      <trkpt lat="46.61353" lon="5.8964">
        <ele>797.98</ele>
        <time>2019-11-12T13:58:19Z</time>
      </trkpt>
      <trkpt lat="46.61357" lon="5.89666">
        <ele>797.06</ele>
        <time>2019-11-12T13:58:35Z</time>
      </trkpt>
      <trkpt lat="46.61352" lon="5.89677">
        <ele>797.33</ele>
        <time>2019-11-12T13:58:41Z</time>
      </trkpt>
      <trkpt lat="46.61343" lon="5.89707">
        <ele>798.37</ele>
        <time>2019-11-12T13:59:00Z</time>
      </trkpt>
      <trkpt lat="46.6133" lon="5.89731">
        <ele>800.19</ele>
        <time>2019-11-12T13:59:17Z</time>
      </trkpt>
      <trkpt lat="46.61327" lon="5.89737">
        <ele>799.97</ele>
        <time>2019-11-12T13:59:27Z</time>
      </trkpt>
      <trkpt lat="46.61309" lon="5.89756">
        <ele>803.1</ele>
        <time>2019-11-12T13:59:43Z</time>
      </trkpt>
      <trkpt lat="46.61294" lon="5.89771">
        <ele>804.13</ele>
        <time>2019-11-12T14:00:01Z</time>
      </trkpt>
      <trkpt lat="46.6128" lon="5.89789">
        <ele>806.81</ele>
        <time>2019-11-12T14:00:23Z</time>
      </trkpt>
      <trkpt lat="46.61268" lon="5.89808">
        <ele>808.44</ele>
        <time>2019-11-12T14:00:43Z</time>
      </trkpt>
      <trkpt lat="46.61259" lon="5.89818">
        <ele>809.64</ele>
        <time>2019-11-12T14:00:53Z</time>
      </trkpt>
      <trkpt lat="46.61244" lon="5.89841">
        <ele>811.26</ele>
        <time>2019-11-12T14:01:12Z</time>
      </trkpt>
      <trkpt lat="46.61229" lon="5.89854">
        <ele>813.12</ele>
        <time>2019-11-12T14:01:34Z</time>
      </trkpt>
      <trkpt lat="46.61221" lon="5.89867">
        <ele>815.01</ele>
        <time>2019-11-12T14:01:53Z</time>
      </trkpt>
      <trkpt lat="46.61204" lon="5.89879">
        <ele>815.89</ele>
        <time>2019-11-12T14:02:08Z</time>
      </trkpt>
      <trkpt lat="46.61189" lon="5.89883">
        <ele>817.11</ele>
        <time>2019-11-12T14:02:19Z</time>
      </trkpt>
      <trkpt lat="46.61189" lon="5.89885">
        <ele>816.67</ele>
        <time>2019-11-12T14:02:21Z</time>
      </trkpt>
      <trkpt lat="46.61188" lon="5.89886">
        <ele>817.25</ele>
        <time>2019-11-12T14:02:23Z</time>
      </trkpt>
      <trkpt lat="46.61173" lon="5.89897">
        <ele>819.54</ele>
        <time>2019-11-12T14:02:42Z</time>
      </trkpt>
      <trkpt lat="46.6117" lon="5.89911">
        <ele>819.93</ele>
        <time>2019-11-12T14:02:54Z</time>
      </trkpt>
      <trkpt lat="46.61168" lon="5.89917">
        <ele>821.2</ele>
        <time>2019-11-12T14:02:59Z</time>
      </trkpt>
      <trkpt lat="46.61163" lon="5.89919">
        <ele>820.9</ele>
        <time>2019-11-12T14:03:17Z</time>
      </trkpt>
      <trkpt lat="46.61161" lon="5.8992">
        <ele>820.99</ele>
        <time>2019-11-12T14:03:41Z</time>
      </trkpt>
      <trkpt lat="46.61162" lon="5.8992">
        <ele>821.31</ele>
        <time>2019-11-12T14:04:00Z</time>
      </trkpt>
      <trkpt lat="46.61162" lon="5.89926">
        <ele>822.03</ele>
        <time>2019-11-12T14:04:14Z</time>
      </trkpt>
      <trkpt lat="46.61161" lon="5.89932">
        <ele>822.25</ele>
        <time>2019-11-12T14:04:37Z</time>
      </trkpt>
      <trkpt lat="46.61159" lon="5.89937">
        <ele>822.48</ele>
        <time>2019-11-12T14:05:02Z</time>
      </trkpt>
      <trkpt lat="46.61159" lon="5.89941">
        <ele>823.12</ele>
        <time>2019-11-12T14:05:28Z</time>
      </trkpt>
      <trkpt lat="46.61156" lon="5.89956">
        <ele>824.79</ele>
        <time>2019-11-12T14:05:48Z</time>
      </trkpt>
      <trkpt lat="46.6115" lon="5.89976">
        <ele>827.61</ele>
        <time>2019-11-12T14:06:07Z</time>
      </trkpt>
      <trkpt lat="46.61149" lon="5.89991">
        <ele>829.59</ele>
        <time>2019-11-12T14:06:21Z</time>
      </trkpt>
      <trkpt lat="46.6115" lon="5.90012">
        <ele>832.55</ele>
        <time>2019-11-12T14:06:38Z</time>
      </trkpt>
      <trkpt lat="46.61147" lon="5.90038">
        <ele>835.43</ele>
        <time>2019-11-12T14:06:57Z</time>
      </trkpt>
      <trkpt lat="46.61148" lon="5.90044">
        <ele>836.86</ele>
        <time>2019-11-12T14:07:05Z</time>
      </trkpt>
      <trkpt lat="46.6115" lon="5.90064">
        <ele>839.38</ele>
        <time>2019-11-12T14:07:23Z</time>
      </trkpt>
      <trkpt lat="46.61152" lon="5.90092">
        <ele>841.69</ele>
        <time>2019-11-12T14:07:46Z</time>
      </trkpt>
      <trkpt lat="46.6115" lon="5.90097">
        <ele>841.75</ele>
        <time>2019-11-12T14:07:49Z</time>
      </trkpt>
      <trkpt lat="46.61143" lon="5.90109">
        <ele>843.14</ele>
        <time>2019-11-12T14:08:03Z</time>
      </trkpt>
      <trkpt lat="46.61136" lon="5.90122">
        <ele>845.57</ele>
        <time>2019-11-12T14:08:25Z</time>
      </trkpt>
      <trkpt lat="46.61125" lon="5.90141">
        <ele>847.74</ele>
        <time>2019-11-12T14:08:44Z</time>
      </trkpt>
      <trkpt lat="46.61117" lon="5.90152">
        <ele>849.42</ele>
        <time>2019-11-12T14:09:07Z</time>
      </trkpt>
      <trkpt lat="46.61107" lon="5.90164">
        <ele>850.37</ele>
        <time>2019-11-12T14:09:25Z</time>
      </trkpt>
      <trkpt lat="46.61103" lon="5.9014">
        <ele>869.9</ele>
      </trkpt>
      <trkpt lat="46.61128" lon="5.90142">
        <ele>872.4</ele>
      </trkpt>
      <trkpt lat="46.61142" lon="5.90143">
        <ele>874.6</ele>
      </trkpt>
      <trkpt lat="46.61147" lon="5.9014">
        <ele>874.8</ele>
      </trkpt>
      <trkpt lat="46.6115" lon="5.90138">
        <ele>874.8</ele>
      </trkpt>
      <trkpt lat="46.61167" lon="5.90129">
        <ele>889.9</ele>
      </trkpt>
      <trkpt lat="46.61186" lon="5.90118">
        <ele>890.6</ele>
      </trkpt>
      <trkpt lat="46.61199" lon="5.9011">
        <ele>892.3</ele>
      </trkpt>
      <trkpt lat="46.61201" lon="5.9012">
        <ele>893.6</ele>
      </trkpt>
      <trkpt lat="46.61204" lon="5.90131">
        <ele>894.8</ele>
      </trkpt>
      <trkpt lat="46.61207" lon="5.90147">
        <ele>896</ele>
      </trkpt>
      <trkpt lat="46.61217" lon="5.90151">
        <ele>898.2</ele>
      </trkpt>
      <trkpt lat="46.61229" lon="5.90155">
        <ele>901.3</ele>
      </trkpt>
      <trkpt lat="46.6123" lon="5.90155">
        <ele>901.6</ele>
      </trkpt>
      <trkpt lat="46.61231" lon="5.90158">
        <ele>902.2</ele>
      </trkpt>
      <trkpt lat="46.61241" lon="5.90175">
        <ele>911.1</ele>
      </trkpt>
      <trkpt lat="46.61248" lon="5.90173">
        <ele>911.2</ele>
      </trkpt>
      <trkpt lat="46.61265" lon="5.90167">
        <ele>919.7</ele>
      </trkpt>
      <trkpt lat="46.61274" lon="5.9018">
        <ele>924.2</ele>
      </trkpt>
      <trkpt lat="46.61287" lon="5.90199">
        <ele>928.6</ele>
      </trkpt>
      <trkpt lat="46.6129" lon="5.90199">
        <ele>929</ele>
      </trkpt>
      <trkpt lat="46.61305" lon="5.902">
        <ele>931</ele>
      </trkpt>
      <trkpt lat="46.61311" lon="5.902">
        <ele>931.7</ele>
      </trkpt>
      <trkpt lat="46.61334" lon="5.90215">
        <ele>943.3</ele>
      </trkpt>
      <trkpt lat="46.61338" lon="5.90218">
        <ele>943.4</ele>
      </trkpt>
      <trkpt lat="46.6136" lon="5.90194">
        <ele>943.9</ele>
      </trkpt>
      <trkpt lat="46.61366" lon="5.90218">
        <ele>945.2</ele>
      </trkpt>
      <trkpt lat="46.61375" lon="5.9024">
        <ele>947</ele>
      </trkpt>
      <trkpt lat="46.61386" lon="5.90267">
        <ele>949.2</ele>
      </trkpt>
      <trkpt lat="46.61416" lon="5.90275">
        <ele>951.9</ele>
      </trkpt>
      <trkpt lat="46.61393" lon="5.9029">
        <ele>948.4</ele>
      </trkpt>
      <trkpt lat="46.6138" lon="5.90298">
        <ele>946.7</ele>
      </trkpt>
    </trkseg>
  </trk>
</gpx>